<?xml version="1.0" encoding="UTF-8" standalone="no" ?>
<gpx xmlns="http://www.topografix.com/GPX/1/1" xmlns:xsi="http://www.w3.org/2001/XMLSchema-instance" xsi:schemaLocation="http://www.topografix.com/GPX/1/1 http://www.topografix.com/GPX/1/1/gpx.xsd" version="1.1" creator="VisuGPX - https://www.visugpx.com">
  <metadata>
    <name>Pic de l\'Etendard dimanche 30/03/2014</name>
    <desc><![CDATA[Ski de randonnée : départ du refuge de l\'Etendard => Pic de l\'Etendard => retour à St Sorlin d\'Arves]]></desc>
  </metadata>
  <trk>
    <name><![CDATA[Move]]></name>
    <trkseg>
      <trkpt lat="45.20355" lon="6.17532">
        <ele>2407.0930232859</ele>
        <time>2014-03-30T06:21:02.280Z</time>
      </trkpt>
      <trkpt lat="45.2035" lon="6.17532">
        <ele>2410</ele>
        <time>2014-03-30T06:21:48.000Z</time>
      </trkpt>
      <trkpt lat="45.20339" lon="6.17534">
        <ele>2410.6976980478</ele>
        <time>2014-03-30T06:21:58.120Z</time>
      </trkpt>
      <trkpt lat="45.20327" lon="6.17534">
        <ele>2411</ele>
        <time>2014-03-30T06:22:07.320Z</time>
      </trkpt>
      <trkpt lat="45.20317" lon="6.17537">
        <ele>2411.7767775232</ele>
        <time>2014-03-30T06:22:15.030Z</time>
      </trkpt>
      <trkpt lat="45.20307" lon="6.17542">
        <ele>2414.224</ele>
        <time>2014-03-30T06:22:25.220Z</time>
      </trkpt>
      <trkpt lat="45.20304" lon="6.17548">
        <ele>2416</ele>
        <time>2014-03-30T06:22:31.140Z</time>
      </trkpt>
      <trkpt lat="45.20301" lon="6.17556">
        <ele>2417.1908106062</ele>
        <time>2014-03-30T06:22:37.100Z</time>
      </trkpt>
      <trkpt lat="45.20299" lon="6.17566">
        <ele>2418</ele>
        <time>2014-03-30T06:22:43.110Z</time>
      </trkpt>
      <trkpt lat="45.20294" lon="6.17579">
        <ele>2418</ele>
        <time>2014-03-30T06:22:50.910Z</time>
      </trkpt>
      <trkpt lat="45.20287" lon="6.1759">
        <ele>2418.6911467582</ele>
        <time>2014-03-30T06:22:58.120Z</time>
      </trkpt>
      <trkpt lat="45.20281" lon="6.17596">
        <ele>2419</ele>
        <time>2014-03-30T06:23:04.080Z</time>
      </trkpt>
      <trkpt lat="45.20274" lon="6.176">
        <ele>2419</ele>
        <time>2014-03-30T06:23:10.080Z</time>
      </trkpt>
      <trkpt lat="45.20262" lon="6.17604">
        <ele>2418.192</ele>
        <time>2014-03-30T06:23:19.220Z</time>
      </trkpt>
      <trkpt lat="45.2025" lon="6.17604">
        <ele>2418</ele>
        <time>2014-03-30T06:23:28.220Z</time>
      </trkpt>
      <trkpt lat="45.20237" lon="6.17603">
        <ele>2418.7932066718</ele>
        <time>2014-03-30T06:23:39.080Z</time>
      </trkpt>
      <trkpt lat="45.20225" lon="6.17601">
        <ele>2418.1921923769</ele>
        <time>2014-03-30T06:23:49.220Z</time>
      </trkpt>
      <trkpt lat="45.20213" lon="6.17597">
        <ele>2417.19599872</ele>
        <time>2014-03-30T06:23:59.180Z</time>
      </trkpt>
      <trkpt lat="45.20199" lon="6.1759">
        <ele>2418.8141866318</ele>
        <time>2014-03-30T06:24:10.220Z</time>
      </trkpt>
      <trkpt lat="45.20188" lon="6.17583">
        <ele>2419</ele>
        <time>2014-03-30T06:24:19.220Z</time>
      </trkpt>
      <trkpt lat="45.20176" lon="6.17576">
        <ele>2419</ele>
        <time>2014-03-30T06:24:28.080Z</time>
      </trkpt>
      <trkpt lat="45.20166" lon="6.17567">
        <ele>2419</ele>
        <time>2014-03-30T06:24:37.080Z</time>
      </trkpt>
      <trkpt lat="45.2016" lon="6.17564">
        <ele>2418.9069071378</ele>
        <time>2014-03-30T06:24:42.080Z</time>
      </trkpt>
      <trkpt lat="45.20154" lon="6.1756">
        <ele>2418.4064061563</ele>
        <time>2014-03-30T06:24:47.080Z</time>
      </trkpt>
      <trkpt lat="45.20141" lon="6.17557">
        <ele>2418.608</ele>
        <time>2014-03-30T06:24:57.220Z</time>
      </trkpt>
      <trkpt lat="45.2013" lon="6.17555">
        <ele>2419</ele>
        <time>2014-03-30T06:25:06.000Z</time>
      </trkpt>
      <trkpt lat="45.20115" lon="6.17562">
        <ele>2419</ele>
        <time>2014-03-30T06:25:18.120Z</time>
      </trkpt>
      <trkpt lat="45.20102" lon="6.17555">
        <ele>2417.24599808</ele>
        <time>2014-03-30T06:25:29.910Z</time>
      </trkpt>
      <trkpt lat="45.20091" lon="6.17556">
        <ele>2418.4830674104</ele>
        <time>2014-03-30T06:25:46.000Z</time>
      </trkpt>
      <trkpt lat="45.20075" lon="6.1756">
        <ele>2418.7175879888</ele>
        <time>2014-03-30T06:25:54.000Z</time>
      </trkpt>
      <trkpt lat="45.20063" lon="6.17542">
        <ele>2418.9570426786</ele>
        <time>2014-03-30T06:26:05.930Z</time>
      </trkpt>
      <trkpt lat="45.20047" lon="6.17532">
        <ele>2419.4334322483</ele>
        <time>2014-03-30T06:26:13.980Z</time>
      </trkpt>
      <trkpt lat="45.20025" lon="6.17532">
        <ele>2418.08400128</ele>
        <time>2014-03-30T06:26:21.980Z</time>
      </trkpt>
      <trkpt lat="45.20013" lon="6.17539">
        <ele>2419.2857146511</ele>
        <time>2014-03-30T06:26:34.000Z</time>
      </trkpt>
      <trkpt lat="45.19998" lon="6.17536">
        <ele>2418.5705691969</ele>
        <time>2014-03-30T06:26:45.910Z</time>
      </trkpt>
      <trkpt lat="45.19987" lon="6.17534">
        <ele>2419</ele>
        <time>2014-03-30T06:27:02.000Z</time>
      </trkpt>
      <trkpt lat="45.19976" lon="6.17525">
        <ele>2418.91399936</ele>
        <time>2014-03-30T06:27:22.000Z</time>
      </trkpt>
      <trkpt lat="45.19962" lon="6.17521">
        <ele>2418</ele>
        <time>2014-03-30T06:27:37.980Z</time>
      </trkpt>
      <trkpt lat="45.19949" lon="6.17518">
        <ele>2418</ele>
        <time>2014-03-30T06:27:46.120Z</time>
      </trkpt>
      <trkpt lat="45.19938" lon="6.17514">
        <ele>2418</ele>
        <time>2014-03-30T06:27:53.980Z</time>
      </trkpt>
      <trkpt lat="45.19925" lon="6.17515">
        <ele>2418</ele>
        <time>2014-03-30T06:28:05.910Z</time>
      </trkpt>
      <trkpt lat="45.19916" lon="6.17502">
        <ele>2418</ele>
        <time>2014-03-30T06:28:13.980Z</time>
      </trkpt>
      <trkpt lat="45.19906" lon="6.17507">
        <ele>2418.48400128</ele>
        <time>2014-03-30T06:28:25.980Z</time>
      </trkpt>
      <trkpt lat="45.19895" lon="6.17508">
        <ele>2419</ele>
        <time>2014-03-30T06:28:37.980Z</time>
      </trkpt>
      <trkpt lat="45.19884" lon="6.175">
        <ele>2418.5175515402</ele>
        <time>2014-03-30T06:28:45.980Z</time>
      </trkpt>
      <trkpt lat="45.19875" lon="6.17504">
        <ele>2418</ele>
        <time>2014-03-30T06:28:54.120Z</time>
      </trkpt>
      <trkpt lat="45.19862" lon="6.17509">
        <ele>2418.0839172822</ele>
        <time>2014-03-30T06:29:01.980Z</time>
      </trkpt>
      <trkpt lat="45.19849" lon="6.17506">
        <ele>2419</ele>
        <time>2014-03-30T06:29:18.000Z</time>
      </trkpt>
      <trkpt lat="45.19837" lon="6.17512">
        <ele>2418.31599872</ele>
        <time>2014-03-30T06:29:37.980Z</time>
      </trkpt>
      <trkpt lat="45.19824" lon="6.17501">
        <ele>2418</ele>
        <time>2014-03-30T06:29:50.120Z</time>
      </trkpt>
      <trkpt lat="45.19814" lon="6.17502">
        <ele>2418</ele>
        <time>2014-03-30T06:29:58.120Z</time>
      </trkpt>
      <trkpt lat="45.19804" lon="6.17514">
        <ele>2418.8971026761</ele>
        <time>2014-03-30T06:30:10.120Z</time>
      </trkpt>
      <trkpt lat="45.19794" lon="6.17519">
        <ele>2419</ele>
        <time>2014-03-30T06:30:17.980Z</time>
      </trkpt>
      <trkpt lat="45.19781" lon="6.17526">
        <ele>2418.51599872</ele>
        <time>2014-03-30T06:30:25.980Z</time>
      </trkpt>
      <trkpt lat="45.1977" lon="6.1753">
        <ele>2417.9219224875</ele>
        <time>2014-03-30T06:30:41.930Z</time>
      </trkpt>
      <trkpt lat="45.19759" lon="6.1753">
        <ele>2417.1211209172</ele>
        <time>2014-03-30T06:30:49.930Z</time>
      </trkpt>
      <trkpt lat="45.19748" lon="6.17523">
        <ele>2418.0859146429</ele>
        <time>2014-03-30T06:31:02.000Z</time>
      </trkpt>
      <trkpt lat="45.19737" lon="6.17521">
        <ele>2421</ele>
        <time>2014-03-30T06:31:21.930Z</time>
      </trkpt>
      <trkpt lat="45.19727" lon="6.17517">
        <ele>2423.0512038554</ele>
        <time>2014-03-30T06:31:38.000Z</time>
      </trkpt>
      <trkpt lat="45.19717" lon="6.17511">
        <ele>2425</ele>
        <time>2014-03-30T06:31:58.000Z</time>
      </trkpt>
      <trkpt lat="45.19704" lon="6.17513">
        <ele>2428.5705704782</ele>
        <time>2014-03-30T06:32:14.000Z</time>
      </trkpt>
      <trkpt lat="45.19691" lon="6.17499">
        <ele>2430</ele>
        <time>2014-03-30T06:32:29.980Z</time>
      </trkpt>
      <trkpt lat="45.19676" lon="6.17499">
        <ele>2431.4784782976</ele>
        <time>2014-03-30T06:32:45.930Z</time>
      </trkpt>
      <trkpt lat="45.19666" lon="6.17493">
        <ele>2432.0859146429</ele>
        <time>2014-03-30T06:33:02.000Z</time>
      </trkpt>
      <trkpt lat="45.19653" lon="6.17481">
        <ele>2433</ele>
        <time>2014-03-30T06:33:17.980Z</time>
      </trkpt>
      <trkpt lat="45.19643" lon="6.17482">
        <ele>2434.616</ele>
        <time>2014-03-30T06:33:29.220Z</time>
      </trkpt>
      <trkpt lat="45.19636" lon="6.17479">
        <ele>2436.3566426949</ele>
        <time>2014-03-30T06:33:37.930Z</time>
      </trkpt>
      <trkpt lat="45.19623" lon="6.17475">
        <ele>2437</ele>
        <time>2014-03-30T06:33:48.420Z</time>
      </trkpt>
      <trkpt lat="45.19619" lon="6.17468">
        <ele>2437</ele>
        <time>2014-03-30T06:33:58.980Z</time>
      </trkpt>
      <trkpt lat="45.19614" lon="6.17467">
        <ele>2437.2867133314</ele>
        <time>2014-03-30T06:34:04.010Z</time>
      </trkpt>
      <trkpt lat="45.196" lon="6.17471">
        <ele>2438.7658292414</ele>
        <time>2014-03-30T06:34:25.000Z</time>
      </trkpt>
      <trkpt lat="45.1959" lon="6.17466">
        <ele>2440</ele>
        <time>2014-03-30T06:34:38.980Z</time>
      </trkpt>
      <trkpt lat="45.1958" lon="6.17462">
        <ele>2440.91599872</ele>
        <time>2014-03-30T06:34:51.980Z</time>
      </trkpt>
      <trkpt lat="45.1957" lon="6.17466">
        <ele>2440.31599872</ele>
        <time>2014-03-30T06:34:57.980Z</time>
      </trkpt>
      <trkpt lat="45.19559" lon="6.1747">
        <ele>2440</ele>
        <time>2014-03-30T06:35:08.980Z</time>
      </trkpt>
      <trkpt lat="45.19549" lon="6.17473">
        <ele>2441</ele>
        <time>2014-03-30T06:35:38.000Z</time>
      </trkpt>
      <trkpt lat="45.19557" lon="6.17463">
        <ele>2441</ele>
        <time>2014-03-30T06:36:16.000Z</time>
      </trkpt>
      <trkpt lat="45.19552" lon="6.17476">
        <ele>2441</ele>
        <time>2014-03-30T06:37:57.000Z</time>
      </trkpt>
      <trkpt lat="45.19552" lon="6.17463">
        <ele>2441</ele>
        <time>2014-03-30T06:38:36.980Z</time>
      </trkpt>
      <trkpt lat="45.19539" lon="6.17464">
        <ele>2439.6146145646</ele>
        <time>2014-03-30T06:39:45.000Z</time>
      </trkpt>
      <trkpt lat="45.19527" lon="6.17462">
        <ele>2438.8201369087</ele>
        <time>2014-03-30T06:39:52.980Z</time>
      </trkpt>
      <trkpt lat="45.19514" lon="6.17459">
        <ele>2438.038123468</ele>
        <time>2014-03-30T06:40:00.980Z</time>
      </trkpt>
      <trkpt lat="45.19502" lon="6.17448">
        <ele>2438</ele>
        <time>2014-03-30T06:40:13.000Z</time>
      </trkpt>
      <trkpt lat="45.19489" lon="6.17446">
        <ele>2438</ele>
        <time>2014-03-30T06:40:21.000Z</time>
      </trkpt>
      <trkpt lat="45.19476" lon="6.17453">
        <ele>2439</ele>
        <time>2014-03-30T06:40:40.980Z</time>
      </trkpt>
      <trkpt lat="45.19466" lon="6.17467">
        <ele>2439</ele>
        <time>2014-03-30T06:40:49.120Z</time>
      </trkpt>
      <trkpt lat="45.19454" lon="6.17455">
        <ele>2439</ele>
        <time>2014-03-30T06:40:57.080Z</time>
      </trkpt>
      <trkpt lat="45.19443" lon="6.1745">
        <ele>2439</ele>
        <time>2014-03-30T06:41:08.980Z</time>
      </trkpt>
      <trkpt lat="45.19433" lon="6.17453">
        <ele>2439</ele>
        <time>2014-03-30T06:41:16.910Z</time>
      </trkpt>
      <trkpt lat="45.19421" lon="6.17449">
        <ele>2438.60199936</ele>
        <time>2014-03-30T06:41:25.120Z</time>
      </trkpt>
      <trkpt lat="45.19407" lon="6.17446">
        <ele>2439</ele>
        <time>2014-03-30T06:41:45.000Z</time>
      </trkpt>
      <trkpt lat="45.19397" lon="6.1745">
        <ele>2438.8250980868</ele>
        <time>2014-03-30T06:41:52.910Z</time>
      </trkpt>
      <trkpt lat="45.19384" lon="6.17463">
        <ele>2438.0345852527</ele>
        <time>2014-03-30T06:42:00.910Z</time>
      </trkpt>
      <trkpt lat="45.19372" lon="6.17467">
        <ele>2438</ele>
        <time>2014-03-30T06:42:09.120Z</time>
      </trkpt>
      <trkpt lat="45.19362" lon="6.17459">
        <ele>2438.5865865096</ele>
        <time>2014-03-30T06:42:17.010Z</time>
      </trkpt>
      <trkpt lat="45.19353" lon="6.17446">
        <ele>2439</ele>
        <time>2014-03-30T06:42:28.980Z</time>
      </trkpt>
      <trkpt lat="45.19343" lon="6.17435">
        <ele>2438.0128582353</ele>
        <time>2014-03-30T06:42:41.120Z</time>
      </trkpt>
      <trkpt lat="45.19331" lon="6.1744">
        <ele>2438</ele>
        <time>2014-03-30T06:42:53.000Z</time>
      </trkpt>
      <trkpt lat="45.19323" lon="6.1745">
        <ele>2438</ele>
        <time>2014-03-30T06:43:01.000Z</time>
      </trkpt>
      <trkpt lat="45.19313" lon="6.17457">
        <ele>2438.7943259836</ele>
        <time>2014-03-30T06:43:09.120Z</time>
      </trkpt>
      <trkpt lat="45.19295" lon="6.17457">
        <ele>2440</ele>
        <time>2014-03-30T06:43:24.980Z</time>
      </trkpt>
      <trkpt lat="45.19284" lon="6.17459">
        <ele>2439.8161839925</ele>
        <time>2014-03-30T06:43:32.980Z</time>
      </trkpt>
      <trkpt lat="45.19271" lon="6.17451">
        <ele>2438.216216424</ele>
        <time>2014-03-30T06:43:48.980Z</time>
      </trkpt>
      <trkpt lat="45.19257" lon="6.17452">
        <ele>2438.9822840945</ele>
        <time>2014-03-30T06:44:01.120Z</time>
      </trkpt>
      <trkpt lat="45.1924" lon="6.17453">
        <ele>2438.8189921048</ele>
        <time>2014-03-30T06:44:12.980Z</time>
      </trkpt>
      <trkpt lat="45.19232" lon="6.17453">
        <ele>2438.0276966084</ele>
        <time>2014-03-30T06:44:20.980Z</time>
      </trkpt>
      <trkpt lat="45.19225" lon="6.17453">
        <ele>2438</ele>
        <time>2014-03-30T06:44:29.120Z</time>
      </trkpt>
      <trkpt lat="45.19213" lon="6.17451">
        <ele>2438</ele>
        <time>2014-03-30T06:44:37.010Z</time>
      </trkpt>
      <trkpt lat="45.192" lon="6.17454">
        <ele>2438.7937942363</ele>
        <time>2014-03-30T06:44:49.080Z</time>
      </trkpt>
      <trkpt lat="45.19191" lon="6.17454">
        <ele>2438.32599936</ele>
        <time>2014-03-30T06:44:57.880Z</time>
      </trkpt>
      <trkpt lat="45.19184" lon="6.17454">
        <ele>2438</ele>
        <time>2014-03-30T06:45:05.220Z</time>
      </trkpt>
      <trkpt lat="45.19172" lon="6.1745">
        <ele>2437.7048854381</ele>
        <time>2014-03-30T06:45:14.110Z</time>
      </trkpt>
      <trkpt lat="45.19165" lon="6.17456">
        <ele>2437.0368902774</ele>
        <time>2014-03-30T06:45:20.810Z</time>
      </trkpt>
      <trkpt lat="45.19159" lon="6.17457">
        <ele>2437.6867465854</ele>
        <time>2014-03-30T06:45:28.020Z</time>
      </trkpt>
      <trkpt lat="45.19152" lon="6.17458">
        <ele>2438.2726371923</ele>
        <time>2014-03-30T06:45:33.880Z</time>
      </trkpt>
      <trkpt lat="45.19146" lon="6.17459">
        <ele>2438.7701491549</ele>
        <time>2014-03-30T06:45:38.880Z</time>
      </trkpt>
      <trkpt lat="45.19141" lon="6.17459">
        <ele>2439</ele>
        <time>2014-03-30T06:45:43.980Z</time>
      </trkpt>
      <trkpt lat="45.19135" lon="6.1746">
        <ele>2439</ele>
        <time>2014-03-30T06:45:49.980Z</time>
      </trkpt>
      <trkpt lat="45.19129" lon="6.17459">
        <ele>2438.512974363</ele>
        <time>2014-03-30T06:45:56.020Z</time>
      </trkpt>
      <trkpt lat="45.19124" lon="6.1746">
        <ele>2438.0139714082</ele>
        <time>2014-03-30T06:46:01.020Z</time>
      </trkpt>
      <trkpt lat="45.19118" lon="6.1746">
        <ele>2438.6066057717</ele>
        <time>2014-03-30T06:46:07.220Z</time>
      </trkpt>
      <trkpt lat="45.19112" lon="6.1746">
        <ele>2439</ele>
        <time>2014-03-30T06:46:14.220Z</time>
      </trkpt>
      <trkpt lat="45.19107" lon="6.17459">
        <ele>2439</ele>
        <time>2014-03-30T06:46:20.020Z</time>
      </trkpt>
      <trkpt lat="45.19101" lon="6.17458">
        <ele>2439</ele>
        <time>2014-03-30T06:46:26.020Z</time>
      </trkpt>
      <trkpt lat="45.19088" lon="6.1746">
        <ele>2439</ele>
        <time>2014-03-30T06:46:38.910Z</time>
      </trkpt>
      <trkpt lat="45.19079" lon="6.17456">
        <ele>2439</ele>
        <time>2014-03-30T06:46:47.120Z</time>
      </trkpt>
      <trkpt lat="45.1907" lon="6.17454">
        <ele>2439.88600064</ele>
        <time>2014-03-30T06:47:00.000Z</time>
      </trkpt>
      <trkpt lat="45.19059" lon="6.17455">
        <ele>2440.0850848465</ele>
        <time>2014-03-30T06:47:12.000Z</time>
      </trkpt>
      <trkpt lat="45.19049" lon="6.17449">
        <ele>2441.384</ele>
        <time>2014-03-30T06:47:24.980Z</time>
      </trkpt>
      <trkpt lat="45.1904" lon="6.17443">
        <ele>2442.4835172985</ele>
        <time>2014-03-30T06:47:35.980Z</time>
      </trkpt>
      <trkpt lat="45.19031" lon="6.17438">
        <ele>2444</ele>
        <time>2014-03-30T06:47:51.980Z</time>
      </trkpt>
      <trkpt lat="45.19022" lon="6.1743">
        <ele>2444.8571439532</ele>
        <time>2014-03-30T06:48:04.000Z</time>
      </trkpt>
      <trkpt lat="45.19011" lon="6.17425">
        <ele>2449.1626499598</ele>
        <time>2014-03-30T06:48:32.000Z</time>
      </trkpt>
      <trkpt lat="45.19001" lon="6.17422">
        <ele>2450.7690756626</ele>
        <time>2014-03-30T06:48:40.000Z</time>
      </trkpt>
      <trkpt lat="45.18994" lon="6.17412">
        <ele>2452.68600064</ele>
        <time>2014-03-30T06:48:58.000Z</time>
      </trkpt>
      <trkpt lat="45.18985" lon="6.17407">
        <ele>2454.7942053522</ele>
        <time>2014-03-30T06:49:10.120Z</time>
      </trkpt>
      <trkpt lat="45.18977" lon="6.17398">
        <ele>2456.57200128</ele>
        <time>2014-03-30T06:49:29.000Z</time>
      </trkpt>
      <trkpt lat="45.18968" lon="6.17407">
        <ele>2463.2857146511</ele>
        <time>2014-03-30T06:50:04.000Z</time>
      </trkpt>
      <trkpt lat="45.18965" lon="6.17421">
        <ele>2464.8978984404</ele>
        <time>2014-03-30T06:50:20.120Z</time>
      </trkpt>
      <trkpt lat="45.18956" lon="6.17425">
        <ele>2467.5854146633</ele>
        <time>2014-03-30T06:50:37.000Z</time>
      </trkpt>
      <trkpt lat="45.18947" lon="6.17434">
        <ele>2470.45800192</ele>
        <time>2014-03-30T06:50:56.000Z</time>
      </trkpt>
      <trkpt lat="45.18935" lon="6.17433">
        <ele>2474.6822705976</ele>
        <time>2014-03-30T06:51:18.000Z</time>
      </trkpt>
      <trkpt lat="45.18924" lon="6.17436">
        <ele>2475.8854276684</ele>
        <time>2014-03-30T06:51:30.000Z</time>
      </trkpt>
      <trkpt lat="45.18911" lon="6.17429">
        <ele>2477.4784782976</ele>
        <time>2014-03-30T06:51:45.930Z</time>
      </trkpt>
      <trkpt lat="45.189" lon="6.17424">
        <ele>2479.4855146592</ele>
        <time>2014-03-30T06:52:06.000Z</time>
      </trkpt>
      <trkpt lat="45.18892" lon="6.17437">
        <ele>2480</ele>
        <time>2014-03-30T06:52:17.980Z</time>
      </trkpt>
      <trkpt lat="45.1888" lon="6.17441">
        <ele>2480</ele>
        <time>2014-03-30T06:52:29.910Z</time>
      </trkpt>
      <trkpt lat="45.18871" lon="6.17434">
        <ele>2480</ele>
        <time>2014-03-30T06:52:38.120Z</time>
      </trkpt>
      <trkpt lat="45.1886" lon="6.17415">
        <ele>2479.5025023448</ele>
        <time>2014-03-30T06:52:46.120Z</time>
      </trkpt>
      <trkpt lat="45.18852" lon="6.17395">
        <ele>2479.28400128</ele>
        <time>2014-03-30T06:52:53.980Z</time>
      </trkpt>
      <trkpt lat="45.18847" lon="6.17377">
        <ele>2480</ele>
        <time>2014-03-30T06:53:10.120Z</time>
      </trkpt>
      <trkpt lat="45.18844" lon="6.17365">
        <ele>2480</ele>
        <time>2014-03-30T06:53:26.000Z</time>
      </trkpt>
      <trkpt lat="45.18834" lon="6.1736">
        <ele>2480.0780775125</ele>
        <time>2014-03-30T06:53:41.930Z</time>
      </trkpt>
      <trkpt lat="45.18823" lon="6.17348">
        <ele>2481.56800256</ele>
        <time>2014-03-30T06:53:53.980Z</time>
      </trkpt>
      <trkpt lat="45.18819" lon="6.17332">
        <ele>2483</ele>
        <time>2014-03-30T06:54:05.970Z</time>
      </trkpt>
      <trkpt lat="45.18815" lon="6.17318">
        <ele>2482.4351759777</ele>
        <time>2014-03-30T06:54:14.000Z</time>
      </trkpt>
      <trkpt lat="45.18804" lon="6.17322">
        <ele>2482.43100288</ele>
        <time>2014-03-30T06:54:25.910Z</time>
      </trkpt>
      <trkpt lat="45.18796" lon="6.1733">
        <ele>2484</ele>
        <time>2014-03-30T06:54:45.980Z</time>
      </trkpt>
      <trkpt lat="45.18789" lon="6.17321">
        <ele>2483.70199936</ele>
        <time>2014-03-30T06:54:54.120Z</time>
      </trkpt>
      <trkpt lat="45.18782" lon="6.1731">
        <ele>2483</ele>
        <time>2014-03-30T06:55:02.120Z</time>
      </trkpt>
      <trkpt lat="45.18776" lon="6.17296">
        <ele>2483</ele>
        <time>2014-03-30T06:55:10.120Z</time>
      </trkpt>
      <trkpt lat="45.18763" lon="6.17288">
        <ele>2483</ele>
        <time>2014-03-30T06:55:25.890Z</time>
      </trkpt>
      <trkpt lat="45.18751" lon="6.17282">
        <ele>2482.4325654193</ele>
        <time>2014-03-30T06:55:33.980Z</time>
      </trkpt>
      <trkpt lat="45.18734" lon="6.17266">
        <ele>2480.4174174982</ele>
        <time>2014-03-30T06:55:46.970Z</time>
      </trkpt>
      <trkpt lat="45.18724" lon="6.17259">
        <ele>2478.80599808</ele>
        <time>2014-03-30T06:55:55.120Z</time>
      </trkpt>
      <trkpt lat="45.18714" lon="6.17251">
        <ele>2477</ele>
        <time>2014-03-30T06:56:03.120Z</time>
      </trkpt>
      <trkpt lat="45.18705" lon="6.17244">
        <ele>2477</ele>
        <time>2014-03-30T06:56:11.120Z</time>
      </trkpt>
      <trkpt lat="45.18694" lon="6.17236">
        <ele>2476.8181820481</ele>
        <time>2014-03-30T06:56:22.980Z</time>
      </trkpt>
      <trkpt lat="45.18686" lon="6.17231">
        <ele>2476.027669214</ele>
        <time>2014-03-30T06:56:30.980Z</time>
      </trkpt>
      <trkpt lat="45.1868" lon="6.17226">
        <ele>2476</ele>
        <time>2014-03-30T06:56:39.120Z</time>
      </trkpt>
      <trkpt lat="45.18668" lon="6.17228">
        <ele>2475.602602541</ele>
        <time>2014-03-30T06:56:45.120Z</time>
      </trkpt>
      <trkpt lat="45.1866" lon="6.17224">
        <ele>2474.8069647217</ele>
        <time>2014-03-30T06:56:53.080Z</time>
      </trkpt>
      <trkpt lat="45.18645" lon="6.17224">
        <ele>2474.1746981526</ele>
        <time>2014-03-30T06:57:02.930Z</time>
      </trkpt>
      <trkpt lat="45.18638" lon="6.17223">
        <ele>2474.7771077912</ele>
        <time>2014-03-30T06:57:08.930Z</time>
      </trkpt>
      <trkpt lat="45.18631" lon="6.17219">
        <ele>2474.6166172092</ele>
        <time>2014-03-30T06:57:14.980Z</time>
      </trkpt>
      <trkpt lat="45.18626" lon="6.17218">
        <ele>2474.1161149464</ele>
        <time>2014-03-30T06:57:19.980Z</time>
      </trkpt>
      <trkpt lat="45.1862" lon="6.17218">
        <ele>2473.5088754185</ele>
        <time>2014-03-30T06:57:26.120Z</time>
      </trkpt>
      <trkpt lat="45.18615" lon="6.17216">
        <ele>2473.0157790827</ele>
        <time>2014-03-30T06:57:31.120Z</time>
      </trkpt>
      <trkpt lat="45.18603" lon="6.17212">
        <ele>2473</ele>
        <time>2014-03-30T06:57:42.000Z</time>
      </trkpt>
      <trkpt lat="45.18598" lon="6.17211">
        <ele>2473</ele>
        <time>2014-03-30T06:57:47.000Z</time>
      </trkpt>
      <trkpt lat="45.18588" lon="6.17208">
        <ele>2473.58800128</ele>
        <time>2014-03-30T06:57:57.020Z</time>
      </trkpt>
      <trkpt lat="45.18572" lon="6.17205">
        <ele>2474</ele>
        <time>2014-03-30T06:58:09.980Z</time>
      </trkpt>
      <trkpt lat="45.18562" lon="6.17201">
        <ele>2473.2022017559</ele>
        <time>2014-03-30T06:58:19.120Z</time>
      </trkpt>
      <trkpt lat="45.18552" lon="6.17202">
        <ele>2473</ele>
        <time>2014-03-30T06:58:26.120Z</time>
      </trkpt>
      <trkpt lat="45.18545" lon="6.17198">
        <ele>2473.6883119872</ele>
        <time>2014-03-30T06:58:38.030Z</time>
      </trkpt>
      <trkpt lat="45.18535" lon="6.17197">
        <ele>2474</ele>
        <time>2014-03-30T06:58:54.000Z</time>
      </trkpt>
      <trkpt lat="45.18525" lon="6.1719">
        <ele>2474</ele>
        <time>2014-03-30T06:59:03.930Z</time>
      </trkpt>
      <trkpt lat="45.18516" lon="6.17184">
        <ele>2474</ele>
        <time>2014-03-30T06:59:11.980Z</time>
      </trkpt>
      <trkpt lat="45.18505" lon="6.17186">
        <ele>2474</ele>
        <time>2014-03-30T06:59:17.980Z</time>
      </trkpt>
      <trkpt lat="45.18495" lon="6.17186">
        <ele>2474.39800064</ele>
        <time>2014-03-30T06:59:25.120Z</time>
      </trkpt>
      <trkpt lat="45.18484" lon="6.17186">
        <ele>2475</ele>
        <time>2014-03-30T06:59:32.980Z</time>
      </trkpt>
      <trkpt lat="45.18473" lon="6.17187">
        <ele>2475</ele>
        <time>2014-03-30T06:59:42.000Z</time>
      </trkpt>
      <trkpt lat="45.18464" lon="6.17181">
        <ele>2475</ele>
        <time>2014-03-30T06:59:57.000Z</time>
      </trkpt>
      <trkpt lat="45.18455" lon="6.17174">
        <ele>2476</ele>
        <time>2014-03-30T07:00:18.000Z</time>
      </trkpt>
      <trkpt lat="45.18445" lon="6.17171">
        <ele>2476</ele>
        <time>2014-03-30T07:00:24.120Z</time>
      </trkpt>
      <trkpt lat="45.18435" lon="6.17161">
        <ele>2476</ele>
        <time>2014-03-30T07:00:36.000Z</time>
      </trkpt>
      <trkpt lat="45.18425" lon="6.17165">
        <ele>2476</ele>
        <time>2014-03-30T07:00:45.120Z</time>
      </trkpt>
      <trkpt lat="45.18414" lon="6.17167">
        <ele>2476</ele>
        <time>2014-03-30T07:00:53.980Z</time>
      </trkpt>
      <trkpt lat="45.18402" lon="6.17168">
        <ele>2476.4855146592</ele>
        <time>2014-03-30T07:01:06.000Z</time>
      </trkpt>
      <trkpt lat="45.18393" lon="6.17162">
        <ele>2478</ele>
        <time>2014-03-30T07:01:22.000Z</time>
      </trkpt>
      <trkpt lat="45.18383" lon="6.17154">
        <ele>2478.2837172903</ele>
        <time>2014-03-30T07:01:33.980Z</time>
      </trkpt>
      <trkpt lat="45.18372" lon="6.17162">
        <ele>2479</ele>
        <time>2014-03-30T07:01:42.120Z</time>
      </trkpt>
      <trkpt lat="45.1836" lon="6.17168">
        <ele>2479</ele>
        <time>2014-03-30T07:01:54.000Z</time>
      </trkpt>
      <trkpt lat="45.18349" lon="6.1716">
        <ele>2479</ele>
        <time>2014-03-30T07:02:05.980Z</time>
      </trkpt>
      <trkpt lat="45.18339" lon="6.17162">
        <ele>2479.2852852391</ele>
        <time>2014-03-30T07:02:14.000Z</time>
      </trkpt>
      <trkpt lat="45.18323" lon="6.17161">
        <ele>2480</ele>
        <time>2014-03-30T07:02:25.910Z</time>
      </trkpt>
      <trkpt lat="45.18314" lon="6.17153">
        <ele>2481.1628135842</ele>
        <time>2014-03-30T07:02:42.000Z</time>
      </trkpt>
      <trkpt lat="45.18304" lon="6.17155">
        <ele>2483.68400128</ele>
        <time>2014-03-30T07:02:57.980Z</time>
      </trkpt>
      <trkpt lat="45.18293" lon="6.17152">
        <ele>2484.8851146756</ele>
        <time>2014-03-30T07:03:10.000Z</time>
      </trkpt>
      <trkpt lat="45.18281" lon="6.17147">
        <ele>2486.88600064</ele>
        <time>2014-03-30T07:03:30.000Z</time>
      </trkpt>
      <trkpt lat="45.1827" lon="6.17142">
        <ele>2487.1561550249</ele>
        <time>2014-03-30T07:03:41.930Z</time>
      </trkpt>
      <trkpt lat="45.18263" lon="6.17131">
        <ele>2490.0839172822</ele>
        <time>2014-03-30T07:04:01.980Z</time>
      </trkpt>
      <trkpt lat="45.18252" lon="6.17126">
        <ele>2493</ele>
        <time>2014-03-30T07:04:21.910Z</time>
      </trkpt>
      <trkpt lat="45.1824" lon="6.17127">
        <ele>2493</ele>
        <time>2014-03-30T07:04:34.000Z</time>
      </trkpt>
      <trkpt lat="45.1823" lon="6.17122">
        <ele>2496.28400128</ele>
        <time>2014-03-30T07:04:53.980Z</time>
      </trkpt>
      <trkpt lat="45.18219" lon="6.17122">
        <ele>2497</ele>
        <time>2014-03-30T07:05:06.000Z</time>
      </trkpt>
      <trkpt lat="45.18207" lon="6.17121">
        <ele>2499.9671645289</ele>
        <time>2014-03-30T07:05:26.000Z</time>
      </trkpt>
      <trkpt lat="45.18195" lon="6.17114">
        <ele>2502.4854856317</ele>
        <time>2014-03-30T07:05:46.000Z</time>
      </trkpt>
      <trkpt lat="45.18182" lon="6.17112">
        <ele>2503.4835172985</ele>
        <time>2014-03-30T07:06:05.980Z</time>
      </trkpt>
      <trkpt lat="45.1817" lon="6.17107">
        <ele>2507.76800256</ele>
        <time>2014-03-30T07:06:29.980Z</time>
      </trkpt>
      <trkpt lat="45.1816" lon="6.17098">
        <ele>2509.1701696931</ele>
        <time>2014-03-30T07:06:42.000Z</time>
      </trkpt>
      <trkpt lat="45.18148" lon="6.171">
        <ele>2511.1498506455</ele>
        <time>2014-03-30T07:07:01.890Z</time>
      </trkpt>
      <trkpt lat="45.18138" lon="6.17094">
        <ele>2513.683684661</ele>
        <time>2014-03-30T07:07:17.980Z</time>
      </trkpt>
      <trkpt lat="45.18131" lon="6.17092">
        <ele>2515.79600128</ele>
        <time>2014-03-30T07:07:30.120Z</time>
      </trkpt>
      <trkpt lat="45.18125" lon="6.17089">
        <ele>2516</ele>
        <time>2014-03-30T07:07:41.150Z</time>
      </trkpt>
      <trkpt lat="45.18119" lon="6.17087">
        <ele>2517.753755439</ele>
        <time>2014-03-30T07:07:49.910Z</time>
      </trkpt>
      <trkpt lat="45.18115" lon="6.17084">
        <ele>2518</ele>
        <time>2014-03-30T07:07:58.120Z</time>
      </trkpt>
      <trkpt lat="45.18111" lon="6.17079">
        <ele>2519.9340691941</ele>
        <time>2014-03-30T07:08:05.980Z</time>
      </trkpt>
      <trkpt lat="45.18105" lon="6.17068">
        <ele>2524</ele>
        <time>2014-03-30T07:08:26.000Z</time>
      </trkpt>
      <trkpt lat="45.18095" lon="6.17066">
        <ele>2525.0850848465</ele>
        <time>2014-03-30T07:08:42.000Z</time>
      </trkpt>
      <trkpt lat="45.18084" lon="6.17055">
        <ele>2526.56800256</ele>
        <time>2014-03-30T07:08:53.980Z</time>
      </trkpt>
      <trkpt lat="45.18081" lon="6.17039">
        <ele>2528.9710293185</ele>
        <time>2014-03-30T07:09:06.000Z</time>
      </trkpt>
      <trkpt lat="45.18071" lon="6.17033">
        <ele>2530.48600064</ele>
        <time>2014-03-30T07:09:26.000Z</time>
      </trkpt>
      <trkpt lat="45.18072" lon="6.17019">
        <ele>2533.0349640424</ele>
        <time>2014-03-30T07:09:37.930Z</time>
      </trkpt>
      <trkpt lat="45.18059" lon="6.17016">
        <ele>2536.37200128</ele>
        <time>2014-03-30T07:09:58.000Z</time>
      </trkpt>
      <trkpt lat="45.18046" lon="6.17014">
        <ele>2537</ele>
        <time>2014-03-30T07:10:06.120Z</time>
      </trkpt>
      <trkpt lat="45.18034" lon="6.17009">
        <ele>2540.6853146674</ele>
        <time>2014-03-30T07:10:38.000Z</time>
      </trkpt>
      <trkpt lat="45.18023" lon="6.17008">
        <ele>2542.36200192</ele>
        <time>2014-03-30T07:10:57.950Z</time>
      </trkpt>
      <trkpt lat="45.18012" lon="6.17008">
        <ele>2545.340296272</ele>
        <time>2014-03-30T07:11:08.980Z</time>
      </trkpt>
      <trkpt lat="45.18006" lon="6.17005">
        <ele>2546.8924631726</ele>
        <time>2014-03-30T07:11:20.070Z</time>
      </trkpt>
      <trkpt lat="45.18001" lon="6.17003">
        <ele>2547.70800128</ele>
        <time>2014-03-30T07:11:28.220Z</time>
      </trkpt>
      <trkpt lat="45.17997" lon="6.17">
        <ele>2548</ele>
        <time>2014-03-30T07:11:36.910Z</time>
      </trkpt>
      <trkpt lat="45.17991" lon="6.16998">
        <ele>2548.3833827908</ele>
        <time>2014-03-30T07:11:44.980Z</time>
      </trkpt>
      <trkpt lat="45.17987" lon="6.16996">
        <ele>2549.3654234245</ele>
        <time>2014-03-30T07:11:53.000Z</time>
      </trkpt>
      <trkpt lat="45.17982" lon="6.16993">
        <ele>2550.9371316702</ele>
        <time>2014-03-30T07:12:01.000Z</time>
      </trkpt>
      <trkpt lat="45.17978" lon="6.16991">
        <ele>2551.7934890601</ele>
        <time>2014-03-30T07:12:09.120Z</time>
      </trkpt>
      <trkpt lat="45.17973" lon="6.1699">
        <ele>2552</ele>
        <time>2014-03-30T07:12:17.120Z</time>
      </trkpt>
      <trkpt lat="45.17967" lon="6.16987">
        <ele>2553.392</ele>
        <time>2014-03-30T07:12:28.100Z</time>
      </trkpt>
      <trkpt lat="45.17963" lon="6.16985">
        <ele>2554.4935066596</ele>
        <time>2014-03-30T07:12:36.080Z</time>
      </trkpt>
      <trkpt lat="45.17958" lon="6.16982">
        <ele>2555.5865865096</ele>
        <time>2014-03-30T07:12:44.080Z</time>
      </trkpt>
      <trkpt lat="45.17954" lon="6.16979">
        <ele>2557.09400064</ele>
        <time>2014-03-30T07:12:52.080Z</time>
      </trkpt>
      <trkpt lat="45.17949" lon="6.16976">
        <ele>2557.89400064</ele>
        <time>2014-03-30T07:13:00.080Z</time>
      </trkpt>
      <trkpt lat="45.17944" lon="6.16974">
        <ele>2559.4145866154</ele>
        <time>2014-03-30T07:13:08.220Z</time>
      </trkpt>
      <trkpt lat="45.1794" lon="6.16972">
        <ele>2560.4934936474</ele>
        <time>2014-03-30T07:13:16.080Z</time>
      </trkpt>
      <trkpt lat="45.1793" lon="6.16966">
        <ele>2562.3496506537</ele>
        <time>2014-03-30T07:13:32.890Z</time>
      </trkpt>
      <trkpt lat="45.17922" lon="6.1696">
        <ele>2564</ele>
        <time>2014-03-30T07:13:48.980Z</time>
      </trkpt>
      <trkpt lat="45.17917" lon="6.16953">
        <ele>2565.9473164981</ele>
        <time>2014-03-30T07:14:01.120Z</time>
      </trkpt>
      <trkpt lat="45.17912" lon="6.16947">
        <ele>2568.0930928622</ele>
        <time>2014-03-30T07:14:12.080Z</time>
      </trkpt>
      <trkpt lat="45.17904" lon="6.1694">
        <ele>2570.57200128</ele>
        <time>2014-03-30T07:14:29.000Z</time>
      </trkpt>
      <trkpt lat="45.17895" lon="6.16933">
        <ele>2571.7707708708</ele>
        <time>2014-03-30T07:14:45.000Z</time>
      </trkpt>
      <trkpt lat="45.17889" lon="6.16926">
        <ele>2574.168</ele>
        <time>2014-03-30T07:14:56.980Z</time>
      </trkpt>
      <trkpt lat="45.17886" lon="6.16916">
        <ele>2575.7852146715</ele>
        <time>2014-03-30T07:15:09.000Z</time>
      </trkpt>
      <trkpt lat="45.17877" lon="6.16901">
        <ele>2578</ele>
        <time>2014-03-30T07:15:25.000Z</time>
      </trkpt>
      <trkpt lat="45.17868" lon="6.16898">
        <ele>2579.9447732104</ele>
        <time>2014-03-30T07:15:41.000Z</time>
      </trkpt>
      <trkpt lat="45.17857" lon="6.1689">
        <ele>2580.37200128</ele>
        <time>2014-03-30T07:15:53.000Z</time>
      </trkpt>
      <trkpt lat="45.17849" lon="6.16879">
        <ele>2582.3605244263</ele>
        <time>2014-03-30T07:16:13.000Z</time>
      </trkpt>
      <trkpt lat="45.17843" lon="6.16869">
        <ele>2584</ele>
        <time>2014-03-30T07:16:29.000Z</time>
      </trkpt>
      <trkpt lat="45.17834" lon="6.16867">
        <ele>2585.1948053277</ele>
        <time>2014-03-30T07:16:37.120Z</time>
      </trkpt>
      <trkpt lat="45.17827" lon="6.16859">
        <ele>2587.3497477947</ele>
        <time>2014-03-30T07:16:52.930Z</time>
      </trkpt>
      <trkpt lat="45.17822" lon="6.16844">
        <ele>2589</ele>
        <time>2014-03-30T07:17:04.980Z</time>
      </trkpt>
      <trkpt lat="45.17815" lon="6.16833">
        <ele>2589</ele>
        <time>2014-03-30T07:17:21.000Z</time>
      </trkpt>
      <trkpt lat="45.17804" lon="6.1683">
        <ele>2592</ele>
        <time>2014-03-30T07:17:36.930Z</time>
      </trkpt>
      <trkpt lat="45.17794" lon="6.16831">
        <ele>2593.5955964883</ele>
        <time>2014-03-30T07:17:49.120Z</time>
      </trkpt>
      <trkpt lat="45.17785" lon="6.16822">
        <ele>2595.3856146552</ele>
        <time>2014-03-30T07:18:05.000Z</time>
      </trkpt>
      <trkpt lat="45.17781" lon="6.16808">
        <ele>2596</ele>
        <time>2014-03-30T07:18:20.910Z</time>
      </trkpt>
      <trkpt lat="45.17774" lon="6.16795">
        <ele>2598.1838160075</ele>
        <time>2014-03-30T07:18:32.980Z</time>
      </trkpt>
      <trkpt lat="45.17767" lon="6.16786">
        <ele>2599.7817822127</ele>
        <time>2014-03-30T07:18:48.960Z</time>
      </trkpt>
      <trkpt lat="45.17757" lon="6.16787">
        <ele>2601.3836160157</ele>
        <time>2014-03-30T07:19:04.980Z</time>
      </trkpt>
      <trkpt lat="45.17748" lon="6.16786">
        <ele>2603.756757484</ele>
        <time>2014-03-30T07:19:17.000Z</time>
      </trkpt>
      <trkpt lat="45.17738" lon="6.16784">
        <ele>2605.784</ele>
        <time>2014-03-30T07:19:28.980Z</time>
      </trkpt>
      <trkpt lat="45.1773" lon="6.16776">
        <ele>2607</ele>
        <time>2014-03-30T07:19:45.000Z</time>
      </trkpt>
      <trkpt lat="45.1772" lon="6.16767">
        <ele>2608.19600128</ele>
        <time>2014-03-30T07:19:57.120Z</time>
      </trkpt>
      <trkpt lat="45.17715" lon="6.16754">
        <ele>2610.9615772642</ele>
        <time>2014-03-30T07:20:20.910Z</time>
      </trkpt>
      <trkpt lat="45.17702" lon="6.16753">
        <ele>2612.3676320151</ele>
        <time>2014-03-30T07:20:32.980Z</time>
      </trkpt>
      <trkpt lat="45.17689" lon="6.16754">
        <ele>2614.783783576</ele>
        <time>2014-03-30T07:20:48.980Z</time>
      </trkpt>
      <trkpt lat="45.17682" lon="6.16742">
        <ele>2617.3556440146</ele>
        <time>2014-03-30T07:21:09.000Z</time>
      </trkpt>
      <trkpt lat="45.17673" lon="6.16734">
        <ele>2619.9407687078</ele>
        <time>2014-03-30T07:21:20.980Z</time>
      </trkpt>
      <trkpt lat="45.17663" lon="6.16728">
        <ele>2621.3853854354</ele>
        <time>2014-03-30T07:21:45.000Z</time>
      </trkpt>
      <trkpt lat="45.17651" lon="6.16725">
        <ele>2622</ele>
        <time>2014-03-30T07:21:57.120Z</time>
      </trkpt>
      <trkpt lat="45.17638" lon="6.16727">
        <ele>2624.1791796717</ele>
        <time>2014-03-30T07:22:12.940Z</time>
      </trkpt>
      <trkpt lat="45.17631" lon="6.16714">
        <ele>2625.782089442</ele>
        <time>2014-03-30T07:22:29.000Z</time>
      </trkpt>
      <trkpt lat="45.17622" lon="6.16711">
        <ele>2626</ele>
        <time>2014-03-30T07:22:40.980Z</time>
      </trkpt>
      <trkpt lat="45.17613" lon="6.16708">
        <ele>2629</ele>
        <time>2014-03-30T07:22:57.000Z</time>
      </trkpt>
      <trkpt lat="45.17604" lon="6.16706">
        <ele>2629.3836160157</ele>
        <time>2014-03-30T07:23:04.980Z</time>
      </trkpt>
      <trkpt lat="45.17591" lon="6.16706">
        <ele>2631.768</ele>
        <time>2014-03-30T07:23:24.980Z</time>
      </trkpt>
      <trkpt lat="45.17579" lon="6.16709">
        <ele>2633.5834160239</ele>
        <time>2014-03-30T07:23:36.980Z</time>
      </trkpt>
      <trkpt lat="45.1757" lon="6.16699">
        <ele>2635.584</ele>
        <time>2014-03-30T07:23:56.980Z</time>
      </trkpt>
      <trkpt lat="45.1756" lon="6.16697">
        <ele>2638.1671663668</ele>
        <time>2014-03-30T07:24:16.980Z</time>
      </trkpt>
      <trkpt lat="45.17549" lon="6.16695">
        <ele>2640.1708293267</ele>
        <time>2014-03-30T07:24:37.000Z</time>
      </trkpt>
      <trkpt lat="45.1754" lon="6.167">
        <ele>2642.5955964883</ele>
        <time>2014-03-30T07:24:49.120Z</time>
      </trkpt>
      <trkpt lat="45.17527" lon="6.16697">
        <ele>2643.9635111867</ele>
        <time>2014-03-30T07:25:00.910Z</time>
      </trkpt>
      <trkpt lat="45.17514" lon="6.16699">
        <ele>2645.165338008</ele>
        <time>2014-03-30T07:25:17.000Z</time>
      </trkpt>
      <trkpt lat="45.17502" lon="6.16701">
        <ele>2647.9870133191</ele>
        <time>2014-03-30T07:25:36.080Z</time>
      </trkpt>
      <trkpt lat="45.17491" lon="6.16699">
        <ele>2650</ele>
        <time>2014-03-30T07:25:53.000Z</time>
      </trkpt>
      <trkpt lat="45.17479" lon="6.16705">
        <ele>2650.3856146552</ele>
        <time>2014-03-30T07:26:05.000Z</time>
      </trkpt>
      <trkpt lat="45.17468" lon="6.16704">
        <ele>2654</ele>
        <time>2014-03-30T07:26:25.000Z</time>
      </trkpt>
      <trkpt lat="45.17459" lon="6.16702">
        <ele>2654.5824173435</ele>
        <time>2014-03-30T07:26:36.970Z</time>
      </trkpt>
      <trkpt lat="45.1745" lon="6.16699">
        <ele>2655.7977982441</ele>
        <time>2014-03-30T07:26:49.120Z</time>
      </trkpt>
      <trkpt lat="45.17442" lon="6.16695">
        <ele>2655.11299968</ele>
        <time>2014-03-30T07:27:00.010Z</time>
      </trkpt>
      <trkpt lat="45.17433" lon="6.16689">
        <ele>2657</ele>
        <time>2014-03-30T07:27:12.100Z</time>
      </trkpt>
      <trkpt lat="45.17424" lon="6.1668">
        <ele>2657</ele>
        <time>2014-03-30T07:37:41.000Z</time>
      </trkpt>
      <trkpt lat="45.17415" lon="6.16673">
        <ele>2658</ele>
        <time>2014-03-30T07:37:54.910Z</time>
      </trkpt>
      <trkpt lat="45.17405" lon="6.16673">
        <ele>2658</ele>
        <time>2014-03-30T07:38:07.000Z</time>
      </trkpt>
      <trkpt lat="45.17397" lon="6.16669">
        <ele>2658</ele>
        <time>2014-03-30T07:38:14.000Z</time>
      </trkpt>
      <trkpt lat="45.17391" lon="6.16659">
        <ele>2658</ele>
        <time>2014-03-30T07:38:25.000Z</time>
      </trkpt>
      <trkpt lat="45.17385" lon="6.1665">
        <ele>2658</ele>
        <time>2014-03-30T07:38:35.000Z</time>
      </trkpt>
      <trkpt lat="45.17374" lon="6.16644">
        <ele>2658</ele>
        <time>2014-03-30T07:38:46.980Z</time>
      </trkpt>
      <trkpt lat="45.17364" lon="6.1664">
        <ele>2658</ele>
        <time>2014-03-30T07:38:54.980Z</time>
      </trkpt>
      <trkpt lat="45.17356" lon="6.16634">
        <ele>2658</ele>
        <time>2014-03-30T07:39:02.980Z</time>
      </trkpt>
      <trkpt lat="45.17351" lon="6.16622">
        <ele>2658</ele>
        <time>2014-03-30T07:39:12.120Z</time>
      </trkpt>
      <trkpt lat="45.1734" lon="6.16619">
        <ele>2658</ele>
        <time>2014-03-30T07:39:23.120Z</time>
      </trkpt>
      <trkpt lat="45.1733" lon="6.16612">
        <ele>2658</ele>
        <time>2014-03-30T07:39:32.980Z</time>
      </trkpt>
      <trkpt lat="45.17325" lon="6.16602">
        <ele>2659</ele>
        <time>2014-03-30T07:39:45.820Z</time>
      </trkpt>
      <trkpt lat="45.17316" lon="6.16597">
        <ele>2659.19799936</ele>
        <time>2014-03-30T07:39:56.120Z</time>
      </trkpt>
      <trkpt lat="45.17307" lon="6.16588">
        <ele>2660</ele>
        <time>2014-03-30T07:40:07.000Z</time>
      </trkpt>
      <trkpt lat="45.17299" lon="6.16582">
        <ele>2659.31600128</ele>
        <time>2014-03-30T07:40:20.980Z</time>
      </trkpt>
      <trkpt lat="45.17291" lon="6.16573">
        <ele>2659.59799936</ele>
        <time>2014-03-30T07:40:30.120Z</time>
      </trkpt>
      <trkpt lat="45.17284" lon="6.16562">
        <ele>2660</ele>
        <time>2014-03-30T07:40:40.980Z</time>
      </trkpt>
      <trkpt lat="45.17276" lon="6.16553">
        <ele>2660</ele>
        <time>2014-03-30T07:40:53.120Z</time>
      </trkpt>
      <trkpt lat="45.17269" lon="6.16544">
        <ele>2660</ele>
        <time>2014-03-30T07:41:05.930Z</time>
      </trkpt>
      <trkpt lat="45.17264" lon="6.16531">
        <ele>2660</ele>
        <time>2014-03-30T07:41:16.960Z</time>
      </trkpt>
      <trkpt lat="45.17255" lon="6.16521">
        <ele>2660</ele>
        <time>2014-03-30T07:41:32.000Z</time>
      </trkpt>
      <trkpt lat="45.17245" lon="6.16511">
        <ele>2660</ele>
        <time>2014-03-30T07:41:44.120Z</time>
      </trkpt>
      <trkpt lat="45.17238" lon="6.165">
        <ele>2660</ele>
        <time>2014-03-30T07:41:52.120Z</time>
      </trkpt>
      <trkpt lat="45.17228" lon="6.16494">
        <ele>2660</ele>
        <time>2014-03-30T07:42:03.980Z</time>
      </trkpt>
      <trkpt lat="45.17216" lon="6.16493">
        <ele>2660</ele>
        <time>2014-03-30T07:42:12.120Z</time>
      </trkpt>
      <trkpt lat="45.17207" lon="6.16496">
        <ele>2660</ele>
        <time>2014-03-30T07:42:31.910Z</time>
      </trkpt>
      <trkpt lat="45.17196" lon="6.16489">
        <ele>2660</ele>
        <time>2014-03-30T07:42:40.120Z</time>
      </trkpt>
      <trkpt lat="45.17186" lon="6.16485">
        <ele>2660</ele>
        <time>2014-03-30T07:42:52.120Z</time>
      </trkpt>
      <trkpt lat="45.17174" lon="6.16479">
        <ele>2660</ele>
        <time>2014-03-30T07:43:03.980Z</time>
      </trkpt>
      <trkpt lat="45.17162" lon="6.16475">
        <ele>2660</ele>
        <time>2014-03-30T07:43:16.000Z</time>
      </trkpt>
      <trkpt lat="45.17152" lon="6.16475">
        <ele>2660</ele>
        <time>2014-03-30T07:43:28.000Z</time>
      </trkpt>
      <trkpt lat="45.17143" lon="6.16468">
        <ele>2660</ele>
        <time>2014-03-30T07:43:40.120Z</time>
      </trkpt>
      <trkpt lat="45.17139" lon="6.16456">
        <ele>2660</ele>
        <time>2014-03-30T07:43:48.120Z</time>
      </trkpt>
      <trkpt lat="45.17126" lon="6.16446">
        <ele>2660</ele>
        <time>2014-03-30T07:44:03.980Z</time>
      </trkpt>
      <trkpt lat="45.17114" lon="6.16444">
        <ele>2660</ele>
        <time>2014-03-30T07:44:12.120Z</time>
      </trkpt>
      <trkpt lat="45.17105" lon="6.16432">
        <ele>2660</ele>
        <time>2014-03-30T07:44:27.910Z</time>
      </trkpt>
      <trkpt lat="45.17095" lon="6.16425">
        <ele>2660</ele>
        <time>2014-03-30T07:44:43.970Z</time>
      </trkpt>
      <trkpt lat="45.17084" lon="6.16418">
        <ele>2660</ele>
        <time>2014-03-30T07:44:55.960Z</time>
      </trkpt>
      <trkpt lat="45.17074" lon="6.16417">
        <ele>2660</ele>
        <time>2014-03-30T07:45:08.000Z</time>
      </trkpt>
      <trkpt lat="45.17064" lon="6.16411">
        <ele>2660</ele>
        <time>2014-03-30T07:45:19.980Z</time>
      </trkpt>
      <trkpt lat="45.17051" lon="6.16403">
        <ele>2660</ele>
        <time>2014-03-30T07:45:35.980Z</time>
      </trkpt>
      <trkpt lat="45.17037" lon="6.16395">
        <ele>2660</ele>
        <time>2014-03-30T07:45:48.000Z</time>
      </trkpt>
      <trkpt lat="45.17026" lon="6.16389">
        <ele>2660</ele>
        <time>2014-03-30T07:45:59.980Z</time>
      </trkpt>
      <trkpt lat="45.17013" lon="6.16375">
        <ele>2660.88399872</ele>
        <time>2014-03-30T07:46:12.980Z</time>
      </trkpt>
      <trkpt lat="45.17005" lon="6.1637">
        <ele>2661</ele>
        <time>2014-03-30T07:46:21.120Z</time>
      </trkpt>
      <trkpt lat="45.16995" lon="6.16368">
        <ele>2661</ele>
        <time>2014-03-30T07:46:33.120Z</time>
      </trkpt>
      <trkpt lat="45.16986" lon="6.16363">
        <ele>2661</ele>
        <time>2014-03-30T07:46:45.000Z</time>
      </trkpt>
      <trkpt lat="45.16976" lon="6.16356">
        <ele>2661</ele>
        <time>2014-03-30T07:47:01.000Z</time>
      </trkpt>
      <trkpt lat="45.16965" lon="6.16352">
        <ele>2661</ele>
        <time>2014-03-30T07:47:12.970Z</time>
      </trkpt>
      <trkpt lat="45.16957" lon="6.16341">
        <ele>2661</ele>
        <time>2014-03-30T07:47:21.120Z</time>
      </trkpt>
      <trkpt lat="45.16947" lon="6.16334">
        <ele>2661</ele>
        <time>2014-03-30T07:47:33.120Z</time>
      </trkpt>
      <trkpt lat="45.16937" lon="6.16327">
        <ele>2661</ele>
        <time>2014-03-30T07:47:49.000Z</time>
      </trkpt>
      <trkpt lat="45.16927" lon="6.16327">
        <ele>2667.08599936</ele>
        <time>2014-03-30T07:48:05.000Z</time>
      </trkpt>
      <trkpt lat="45.16919" lon="6.1632">
        <ele>2668.28599936</ele>
        <time>2014-03-30T07:48:17.000Z</time>
      </trkpt>
      <trkpt lat="45.16907" lon="6.16313">
        <ele>2670.28599936</ele>
        <time>2014-03-30T07:48:37.000Z</time>
      </trkpt>
      <trkpt lat="45.16898" lon="6.16315">
        <ele>2671.88399872</ele>
        <time>2014-03-30T07:48:52.980Z</time>
      </trkpt>
      <trkpt lat="45.16886" lon="6.16313">
        <ele>2674</ele>
        <time>2014-03-30T07:49:05.000Z</time>
      </trkpt>
      <trkpt lat="45.1688" lon="6.16303">
        <ele>2674.56799744</ele>
        <time>2014-03-30T07:49:16.980Z</time>
      </trkpt>
      <trkpt lat="45.16869" lon="6.16298">
        <ele>2676.48399872</ele>
        <time>2014-03-30T07:49:28.980Z</time>
      </trkpt>
      <trkpt lat="45.1686" lon="6.16297">
        <ele>2677.15799808</ele>
        <time>2014-03-30T07:49:44.930Z</time>
      </trkpt>
      <trkpt lat="45.1685" lon="6.16296">
        <ele>2679.28599936</ele>
        <time>2014-03-30T07:49:57.000Z</time>
      </trkpt>
      <trkpt lat="45.16838" lon="6.163">
        <ele>2680.88599936</ele>
        <time>2014-03-30T07:50:13.000Z</time>
      </trkpt>
      <trkpt lat="45.16827" lon="6.16288">
        <ele>2681.15399936</ele>
        <time>2014-03-30T07:50:24.910Z</time>
      </trkpt>
      <trkpt lat="45.16815" lon="6.16278">
        <ele>2683</ele>
        <time>2014-03-30T07:50:41.000Z</time>
      </trkpt>
      <trkpt lat="45.16804" lon="6.16273">
        <ele>2683</ele>
        <time>2014-03-30T07:50:53.000Z</time>
      </trkpt>
      <trkpt lat="45.1679" lon="6.16272">
        <ele>2684</ele>
        <time>2014-03-30T07:51:05.000Z</time>
      </trkpt>
      <trkpt lat="45.16781" lon="6.16264">
        <ele>2684.28399872</ele>
        <time>2014-03-30T07:51:16.980Z</time>
      </trkpt>
      <trkpt lat="45.16769" lon="6.16257">
        <ele>2685</ele>
        <time>2014-03-30T07:51:28.980Z</time>
      </trkpt>
      <trkpt lat="45.1676" lon="6.16251">
        <ele>2685.68</ele>
        <time>2014-03-30T07:51:40.940Z</time>
      </trkpt>
      <trkpt lat="45.1675" lon="6.16243">
        <ele>2686.88399872</ele>
        <time>2014-03-30T07:51:52.980Z</time>
      </trkpt>
      <trkpt lat="45.16738" lon="6.1624">
        <ele>2687</ele>
        <time>2014-03-30T07:52:12.980Z</time>
      </trkpt>
      <trkpt lat="45.16727" lon="6.16241">
        <ele>2688.08599936</ele>
        <time>2014-03-30T07:52:25.000Z</time>
      </trkpt>
      <trkpt lat="45.16717" lon="6.16238">
        <ele>2689</ele>
        <time>2014-03-30T07:52:37.000Z</time>
      </trkpt>
      <trkpt lat="45.16707" lon="6.16238">
        <ele>2689.97199872</ele>
        <time>2014-03-30T07:52:49.000Z</time>
      </trkpt>
      <trkpt lat="45.16698" lon="6.16231">
        <ele>2692.48599936</ele>
        <time>2014-03-30T07:53:09.000Z</time>
      </trkpt>
      <trkpt lat="45.16686" lon="6.16226">
        <ele>2694.0855715297</ele>
        <time>2014-03-30T07:53:25.000Z</time>
      </trkpt>
      <trkpt lat="45.16674" lon="6.16223">
        <ele>2695.2753761526</ele>
        <time>2014-03-30T07:53:36.930Z</time>
      </trkpt>
      <trkpt lat="45.16661" lon="6.16217">
        <ele>2696</ele>
        <time>2014-03-30T07:53:48.980Z</time>
      </trkpt>
      <trkpt lat="45.1665" lon="6.16211">
        <ele>2696.16799744</ele>
        <time>2014-03-30T07:54:04.980Z</time>
      </trkpt>
      <trkpt lat="45.16642" lon="6.16203">
        <ele>2698.68599936</ele>
        <time>2014-03-30T07:54:21.000Z</time>
      </trkpt>
      <trkpt lat="45.1663" lon="6.16199">
        <ele>2699.88399872</ele>
        <time>2014-03-30T07:54:32.980Z</time>
      </trkpt>
      <trkpt lat="45.16619" lon="6.16194">
        <ele>2700.17199872</ele>
        <time>2014-03-30T07:54:45.000Z</time>
      </trkpt>
      <trkpt lat="45.16609" lon="6.1619">
        <ele>2703.36799744</ele>
        <time>2014-03-30T07:55:00.980Z</time>
      </trkpt>
      <trkpt lat="45.166" lon="6.1618">
        <ele>2705.37199872</ele>
        <time>2014-03-30T07:55:21.000Z</time>
      </trkpt>
      <trkpt lat="45.16589" lon="6.16175">
        <ele>2707.28599936</ele>
        <time>2014-03-30T07:55:37.000Z</time>
      </trkpt>
      <trkpt lat="45.16578" lon="6.16163">
        <ele>2708.47699968</ele>
        <time>2014-03-30T07:55:48.910Z</time>
      </trkpt>
      <trkpt lat="45.16571" lon="6.16153">
        <ele>2710.08399872</ele>
        <time>2014-03-30T07:56:04.980Z</time>
      </trkpt>
      <trkpt lat="45.16561" lon="6.16143">
        <ele>2713.9595142225</ele>
        <time>2014-03-30T07:56:29.000Z</time>
      </trkpt>
      <trkpt lat="45.16549" lon="6.16128">
        <ele>2715</ele>
        <time>2014-03-30T07:56:40.980Z</time>
      </trkpt>
      <trkpt lat="45.16543" lon="6.16119">
        <ele>2717.65199616</ele>
        <time>2014-03-30T07:56:52.980Z</time>
      </trkpt>
      <trkpt lat="45.16533" lon="6.16109">
        <ele>2719.87899904</ele>
        <time>2014-03-30T07:57:12.930Z</time>
      </trkpt>
      <trkpt lat="45.1653" lon="6.16095">
        <ele>2724.28599936</ele>
        <time>2014-03-30T07:57:37.000Z</time>
      </trkpt>
      <trkpt lat="45.16519" lon="6.16087">
        <ele>2729.45199616</ele>
        <time>2014-03-30T07:58:08.980Z</time>
      </trkpt>
      <trkpt lat="45.16515" lon="6.16071">
        <ele>2732.97199872</ele>
        <time>2014-03-30T07:58:29.000Z</time>
      </trkpt>
      <trkpt lat="45.1651" lon="6.16057">
        <ele>2736</ele>
        <time>2014-03-30T07:58:52.890Z</time>
      </trkpt>
      <trkpt lat="45.16498" lon="6.16054">
        <ele>2737.476616112</ele>
        <time>2014-03-30T07:59:08.930Z</time>
      </trkpt>
      <trkpt lat="45.1649" lon="6.16041">
        <ele>2739.25199616</ele>
        <time>2014-03-30T07:59:24.980Z</time>
      </trkpt>
      <trkpt lat="45.16482" lon="6.16032">
        <ele>2744.85799808</ele>
        <time>2014-03-30T07:59:57.000Z</time>
      </trkpt>
      <trkpt lat="45.16474" lon="6.16021">
        <ele>2747</ele>
        <time>2014-03-30T08:00:09.000Z</time>
      </trkpt>
      <trkpt lat="45.16466" lon="6.16012">
        <ele>2748.36799744</ele>
        <time>2014-03-30T08:00:20.980Z</time>
      </trkpt>
      <trkpt lat="45.16457" lon="6.16006">
        <ele>2750.28399872</ele>
        <time>2014-03-30T08:00:36.980Z</time>
      </trkpt>
      <trkpt lat="45.16447" lon="6.16001">
        <ele>2751.88599936</ele>
        <time>2014-03-30T08:00:53.000Z</time>
      </trkpt>
      <trkpt lat="45.16442" lon="6.15986">
        <ele>2755.28599936</ele>
        <time>2014-03-30T08:01:17.000Z</time>
      </trkpt>
      <trkpt lat="45.16432" lon="6.15978">
        <ele>2757.76799744</ele>
        <time>2014-03-30T08:01:32.980Z</time>
      </trkpt>
      <trkpt lat="45.16422" lon="6.15969">
        <ele>2759.87699968</ele>
        <time>2014-03-30T08:01:52.910Z</time>
      </trkpt>
      <trkpt lat="45.16413" lon="6.1596">
        <ele>2762.7713128782</ele>
        <time>2014-03-30T08:02:13.000Z</time>
      </trkpt>
      <trkpt lat="45.16403" lon="6.15952">
        <ele>2766.65799808</ele>
        <time>2014-03-30T08:02:33.000Z</time>
      </trkpt>
      <trkpt lat="45.1639" lon="6.15944">
        <ele>2769.56799744</ele>
        <time>2014-03-30T08:02:56.980Z</time>
      </trkpt>
      <trkpt lat="45.16379" lon="6.15946">
        <ele>2771.57199872</ele>
        <time>2014-03-30T08:03:17.000Z</time>
      </trkpt>
      <trkpt lat="45.16367" lon="6.15943">
        <ele>2776</ele>
        <time>2014-03-30T08:03:44.910Z</time>
      </trkpt>
      <trkpt lat="45.16359" lon="6.15944">
        <ele>2776</ele>
        <time>2014-03-30T08:04:01.000Z</time>
      </trkpt>
      <trkpt lat="45.16366" lon="6.15929">
        <ele>2780.48599936</ele>
        <time>2014-03-30T08:04:29.000Z</time>
      </trkpt>
      <trkpt lat="45.16366" lon="6.15914">
        <ele>2783.7509890922</ele>
        <time>2014-03-30T08:04:53.000Z</time>
      </trkpt>
      <trkpt lat="45.16371" lon="6.15901">
        <ele>2785.76799744</ele>
        <time>2014-03-30T08:05:12.980Z</time>
      </trkpt>
      <trkpt lat="45.16382" lon="6.15899">
        <ele>2786</ele>
        <time>2014-03-30T08:05:21.120Z</time>
      </trkpt>
      <trkpt lat="45.16392" lon="6.15893">
        <ele>2788</ele>
        <time>2014-03-30T08:05:40.930Z</time>
      </trkpt>
      <trkpt lat="45.16379" lon="6.15884">
        <ele>2790.37199872</ele>
        <time>2014-03-30T08:06:01.000Z</time>
      </trkpt>
      <trkpt lat="45.16369" lon="6.15881">
        <ele>2793.27699968</ele>
        <time>2014-03-30T08:06:16.910Z</time>
      </trkpt>
      <trkpt lat="45.16358" lon="6.15881">
        <ele>2794.88599936</ele>
        <time>2014-03-30T08:06:33.000Z</time>
      </trkpt>
      <trkpt lat="45.16349" lon="6.15874">
        <ele>2797.88599936</ele>
        <time>2014-03-30T08:06:53.000Z</time>
      </trkpt>
      <trkpt lat="45.16337" lon="6.15873">
        <ele>2800.40399872</ele>
        <time>2014-03-30T08:07:08.180Z</time>
      </trkpt>
      <trkpt lat="45.16328" lon="6.1586">
        <ele>2801</ele>
        <time>2014-03-30T08:07:17.000Z</time>
      </trkpt>
      <trkpt lat="45.16321" lon="6.15853">
        <ele>2802.45199616</ele>
        <time>2014-03-30T08:07:28.980Z</time>
      </trkpt>
      <trkpt lat="45.16315" lon="6.15847">
        <ele>2804.6009939426</ele>
        <time>2014-03-30T08:07:40.180Z</time>
      </trkpt>
      <trkpt lat="45.16308" lon="6.15838">
        <ele>2806.38799872</ele>
        <time>2014-03-30T08:07:56.080Z</time>
      </trkpt>
      <trkpt lat="45.16304" lon="6.15824">
        <ele>2810</ele>
        <time>2014-03-30T08:08:16.950Z</time>
      </trkpt>
      <trkpt lat="45.16297" lon="6.15812">
        <ele>2812</ele>
        <time>2014-03-30T08:08:40.980Z</time>
      </trkpt>
      <trkpt lat="45.16303" lon="6.15797">
        <ele>2816.05799808</ele>
        <time>2014-03-30T08:09:01.000Z</time>
      </trkpt>
      <trkpt lat="45.16297" lon="6.15782">
        <ele>2817</ele>
        <time>2014-03-30T08:09:16.960Z</time>
      </trkpt>
      <trkpt lat="45.16286" lon="6.15774">
        <ele>2817.48399872</ele>
        <time>2014-03-30T08:09:28.980Z</time>
      </trkpt>
      <trkpt lat="45.16281" lon="6.1576">
        <ele>2818.69799936</ele>
        <time>2014-03-30T08:09:41.120Z</time>
      </trkpt>
      <trkpt lat="45.16276" lon="6.15741">
        <ele>2820.56799744</ele>
        <time>2014-03-30T08:09:56.980Z</time>
      </trkpt>
      <trkpt lat="45.16266" lon="6.15734">
        <ele>2823.27699968</ele>
        <time>2014-03-30T08:10:16.910Z</time>
      </trkpt>
      <trkpt lat="45.16257" lon="6.15725">
        <ele>2824.8815916837</ele>
        <time>2014-03-30T08:10:33.000Z</time>
      </trkpt>
      <trkpt lat="45.16249" lon="6.15715">
        <ele>2825.48599936</ele>
        <time>2014-03-30T08:10:49.000Z</time>
      </trkpt>
      <trkpt lat="45.16238" lon="6.15703">
        <ele>2827.25799808</ele>
        <time>2014-03-30T08:11:05.000Z</time>
      </trkpt>
      <trkpt lat="45.16236" lon="6.15688">
        <ele>2831.37199872</ele>
        <time>2014-03-30T08:11:21.000Z</time>
      </trkpt>
      <trkpt lat="45.16232" lon="6.15675">
        <ele>2832.8944228136</ele>
        <time>2014-03-30T08:11:33.120Z</time>
      </trkpt>
      <trkpt lat="45.1622" lon="6.15671">
        <ele>2834.88599936</ele>
        <time>2014-03-30T08:11:53.000Z</time>
      </trkpt>
      <trkpt lat="45.16211" lon="6.15664">
        <ele>2836.47899904</ele>
        <time>2014-03-30T08:12:08.930Z</time>
      </trkpt>
      <trkpt lat="45.16207" lon="6.15651">
        <ele>2837.29799936</ele>
        <time>2014-03-30T08:12:17.120Z</time>
      </trkpt>
      <trkpt lat="45.16199" lon="6.15641">
        <ele>2839.57199872</ele>
        <time>2014-03-30T08:12:37.000Z</time>
      </trkpt>
      <trkpt lat="45.16189" lon="6.15636">
        <ele>2841.47699968</ele>
        <time>2014-03-30T08:12:48.910Z</time>
      </trkpt>
      <trkpt lat="45.16182" lon="6.15621">
        <ele>2843.08399872</ele>
        <time>2014-03-30T08:13:04.980Z</time>
      </trkpt>
      <trkpt lat="45.16174" lon="6.15612">
        <ele>2845.0783912914</ele>
        <time>2014-03-30T08:13:24.970Z</time>
      </trkpt>
      <trkpt lat="45.16164" lon="6.15609">
        <ele>2846.28399872</ele>
        <time>2014-03-30T08:13:36.980Z</time>
      </trkpt>
      <trkpt lat="45.16153" lon="6.15602">
        <ele>2848.77199872</ele>
        <time>2014-03-30T08:13:53.000Z</time>
      </trkpt>
      <trkpt lat="45.16146" lon="6.15589">
        <ele>2851.45799808</ele>
        <time>2014-03-30T08:14:09.000Z</time>
      </trkpt>
      <trkpt lat="45.16143" lon="6.15574">
        <ele>2853</ele>
        <time>2014-03-30T08:14:21.120Z</time>
      </trkpt>
      <trkpt lat="45.16136" lon="6.15563">
        <ele>2856.16799744</ele>
        <time>2014-03-30T08:14:44.980Z</time>
      </trkpt>
      <trkpt lat="45.16126" lon="6.15556">
        <ele>2859.48599936</ele>
        <time>2014-03-30T08:15:09.000Z</time>
      </trkpt>
      <trkpt lat="45.16117" lon="6.15552">
        <ele>2862.48899968</ele>
        <time>2014-03-30T08:15:29.030Z</time>
      </trkpt>
      <trkpt lat="45.16111" lon="6.15552">
        <ele>2864.38799872</ele>
        <time>2014-03-30T08:15:41.080Z</time>
      </trkpt>
      <trkpt lat="45.16102" lon="6.15553">
        <ele>2866.58799872</ele>
        <time>2014-03-30T08:15:57.080Z</time>
      </trkpt>
      <trkpt lat="45.16094" lon="6.15553">
        <ele>2868.891326237</ele>
        <time>2014-03-30T08:16:13.080Z</time>
      </trkpt>
      <trkpt lat="45.16085" lon="6.15553">
        <ele>2871.17199872</ele>
        <time>2014-03-30T08:16:30.000Z</time>
      </trkpt>
      <trkpt lat="45.16077" lon="6.15553">
        <ele>2873.184</ele>
        <time>2014-03-30T08:16:45.980Z</time>
      </trkpt>
      <trkpt lat="45.1607" lon="6.15552">
        <ele>2876.35799808</ele>
        <time>2014-03-30T08:17:02.000Z</time>
      </trkpt>
      <trkpt lat="45.1606" lon="6.15551">
        <ele>2879</ele>
        <time>2014-03-30T08:17:22.000Z</time>
      </trkpt>
      <trkpt lat="45.16052" lon="6.15551">
        <ele>2882.38799872</ele>
        <time>2014-03-30T08:17:41.080Z</time>
      </trkpt>
      <trkpt lat="45.16041" lon="6.15548">
        <ele>2886.17899904</ele>
        <time>2014-03-30T08:18:05.930Z</time>
      </trkpt>
      <trkpt lat="45.16032" lon="6.15547">
        <ele>2890.18599936</ele>
        <time>2014-03-30T08:18:26.000Z</time>
      </trkpt>
      <trkpt lat="45.16026" lon="6.15545">
        <ele>2891.78599936</ele>
        <time>2014-03-30T08:18:42.000Z</time>
      </trkpt>
      <trkpt lat="45.16019" lon="6.15544">
        <ele>2894.3850750679</ele>
        <time>2014-03-30T08:19:01.100Z</time>
      </trkpt>
      <trkpt lat="45.16009" lon="6.15546">
        <ele>2897</ele>
        <time>2014-03-30T08:19:22.000Z</time>
      </trkpt>
      <trkpt lat="45.15998" lon="6.15543">
        <ele>2898.768</ele>
        <time>2014-03-30T08:19:37.980Z</time>
      </trkpt>
      <trkpt lat="45.15988" lon="6.15549">
        <ele>2905</ele>
        <time>2014-03-30T08:20:05.960Z</time>
      </trkpt>
      <trkpt lat="45.15977" lon="6.15543">
        <ele>2908</ele>
        <time>2014-03-30T08:21:14.000Z</time>
      </trkpt>
      <trkpt lat="45.15967" lon="6.15542">
        <ele>2912.152</ele>
        <time>2014-03-30T08:21:37.980Z</time>
      </trkpt>
      <trkpt lat="45.1596" lon="6.15531">
        <ele>2918.78599936</ele>
        <time>2014-03-30T08:22:22.000Z</time>
      </trkpt>
      <trkpt lat="45.1596" lon="6.15516">
        <ele>2920.368</ele>
        <time>2014-03-30T08:22:45.980Z</time>
      </trkpt>
      <trkpt lat="45.15966" lon="6.15503">
        <ele>2923.18599936</ele>
        <time>2014-03-30T08:23:06.000Z</time>
      </trkpt>
      <trkpt lat="45.15967" lon="6.15488">
        <ele>2927.15799808</ele>
        <time>2014-03-30T08:23:29.930Z</time>
      </trkpt>
      <trkpt lat="45.15968" lon="6.15471">
        <ele>2929.9407126523</ele>
        <time>2014-03-30T08:23:53.960Z</time>
      </trkpt>
      <trkpt lat="45.15959" lon="6.15464">
        <ele>2937.75399936</ele>
        <time>2014-03-30T08:24:57.910Z</time>
      </trkpt>
      <trkpt lat="45.15947" lon="6.15467">
        <ele>2941.18599936</ele>
        <time>2014-03-30T08:25:26.000Z</time>
      </trkpt>
      <trkpt lat="45.15936" lon="6.15469">
        <ele>2944</ele>
        <time>2014-03-30T08:25:53.960Z</time>
      </trkpt>
      <trkpt lat="45.15929" lon="6.15458">
        <ele>2951</ele>
        <time>2014-03-30T08:26:42.000Z</time>
      </trkpt>
      <trkpt lat="45.15938" lon="6.15445">
        <ele>2952.7707698832</ele>
        <time>2014-03-30T08:26:58.000Z</time>
      </trkpt>
      <trkpt lat="45.15937" lon="6.1543">
        <ele>2954</ele>
        <time>2014-03-30T08:27:14.000Z</time>
      </trkpt>
      <trkpt lat="45.15945" lon="6.15414">
        <ele>2959.77199872</ele>
        <time>2014-03-30T08:27:58.000Z</time>
      </trkpt>
      <trkpt lat="45.15947" lon="6.15399">
        <ele>2962.9465893855</ele>
        <time>2014-03-30T08:28:13.980Z</time>
      </trkpt>
      <trkpt lat="45.15937" lon="6.15397">
        <ele>2966.37199872</ele>
        <time>2014-03-30T08:28:46.000Z</time>
      </trkpt>
      <trkpt lat="45.15927" lon="6.154">
        <ele>2968</ele>
        <time>2014-03-30T08:28:57.980Z</time>
      </trkpt>
      <trkpt lat="45.15921" lon="6.15404">
        <ele>2970.37199872</ele>
        <time>2014-03-30T08:29:26.000Z</time>
      </trkpt>
      <trkpt lat="45.15911" lon="6.15403">
        <ele>2974.168</ele>
        <time>2014-03-30T08:29:49.980Z</time>
      </trkpt>
      <trkpt lat="45.159" lon="6.15403">
        <ele>2977.168</ele>
        <time>2014-03-30T08:30:09.980Z</time>
      </trkpt>
      <trkpt lat="45.159" lon="6.15387">
        <ele>2979.768</ele>
        <time>2014-03-30T08:30:37.980Z</time>
      </trkpt>
      <trkpt lat="45.15899" lon="6.15372">
        <ele>2982.77699968</ele>
        <time>2014-03-30T08:31:01.910Z</time>
      </trkpt>
      <trkpt lat="45.15905" lon="6.15359">
        <ele>2984.384</ele>
        <time>2014-03-30T08:31:17.980Z</time>
      </trkpt>
      <trkpt lat="45.15912" lon="6.1535">
        <ele>2986.13699712</ele>
        <time>2014-03-30T08:31:37.930Z</time>
      </trkpt>
      <trkpt lat="45.15911" lon="6.15336">
        <ele>2989.88599936</ele>
        <time>2014-03-30T08:32:03.000Z</time>
      </trkpt>
      <trkpt lat="45.15901" lon="6.15333">
        <ele>2994.384</ele>
        <time>2014-03-30T08:32:37.980Z</time>
      </trkpt>
      <trkpt lat="45.15891" lon="6.15337">
        <ele>2997.184</ele>
        <time>2014-03-30T08:32:55.980Z</time>
      </trkpt>
      <trkpt lat="45.15881" lon="6.1534">
        <ele>2998.5842471793</ele>
        <time>2014-03-30T08:33:10.000Z</time>
      </trkpt>
      <trkpt lat="45.1587" lon="6.15337">
        <ele>3001.78599936</ele>
        <time>2014-03-30T08:33:42.000Z</time>
      </trkpt>
      <trkpt lat="45.15877" lon="6.15326">
        <ele>3006.568</ele>
        <time>2014-03-30T08:34:11.980Z</time>
      </trkpt>
      <trkpt lat="45.15877" lon="6.1531">
        <ele>3008.17199872</ele>
        <time>2014-03-30T08:34:30.000Z</time>
      </trkpt>
      <trkpt lat="45.15881" lon="6.15296">
        <ele>3009.83699712</ele>
        <time>2014-03-30T08:34:46.930Z</time>
      </trkpt>
      <trkpt lat="45.15869" lon="6.15303">
        <ele>3019.6825866452</ele>
        <time>2014-03-30T08:36:01.000Z</time>
      </trkpt>
      <trkpt lat="45.15857" lon="6.15296">
        <ele>3026.05799808</ele>
        <time>2014-03-30T08:36:41.000Z</time>
      </trkpt>
      <trkpt lat="45.15852" lon="6.15284">
        <ele>3028.08599936</ele>
        <time>2014-03-30T08:37:05.000Z</time>
      </trkpt>
      <trkpt lat="45.1586" lon="6.15271">
        <ele>3032.6355397455</ele>
        <time>2014-03-30T08:37:32.930Z</time>
      </trkpt>
      <trkpt lat="45.15864" lon="6.15255">
        <ele>3035.28599936</ele>
        <time>2014-03-30T08:37:57.000Z</time>
      </trkpt>
      <trkpt lat="45.15863" lon="6.1524">
        <ele>3038.48599936</ele>
        <time>2014-03-30T08:38:29.000Z</time>
      </trkpt>
      <trkpt lat="45.15848" lon="6.15239">
        <ele>3041</ele>
        <time>2014-03-30T08:38:53.000Z</time>
      </trkpt>
      <trkpt lat="45.15838" lon="6.1524">
        <ele>3041.97199872</ele>
        <time>2014-03-30T08:39:09.000Z</time>
      </trkpt>
      <trkpt lat="45.15829" lon="6.15233">
        <ele>3046.88599936</ele>
        <time>2014-03-30T08:39:33.000Z</time>
      </trkpt>
      <trkpt lat="45.15832" lon="6.15227">
        <ele>3050.79599872</ele>
        <time>2014-03-30T08:40:12.100Z</time>
      </trkpt>
      <trkpt lat="45.15834" lon="6.1522">
        <ele>3052</ele>
        <time>2014-03-30T08:40:24.140Z</time>
      </trkpt>
      <trkpt lat="45.15837" lon="6.15213">
        <ele>3054.55199744</ele>
        <time>2014-03-30T08:40:36.900Z</time>
      </trkpt>
      <trkpt lat="45.15841" lon="6.15198">
        <ele>3056.68599936</ele>
        <time>2014-03-30T08:41:01.000Z</time>
      </trkpt>
      <trkpt lat="45.15846" lon="6.15184">
        <ele>3061</ele>
        <time>2014-03-30T08:41:24.980Z</time>
      </trkpt>
      <trkpt lat="45.15835" lon="6.15181">
        <ele>3065</ele>
        <time>2014-03-30T08:42:09.000Z</time>
      </trkpt>
      <trkpt lat="45.15825" lon="6.15178">
        <ele>3069.48599936</ele>
        <time>2014-03-30T08:42:49.000Z</time>
      </trkpt>
      <trkpt lat="45.15815" lon="6.15171">
        <ele>3072</ele>
        <time>2014-03-30T08:43:08.980Z</time>
      </trkpt>
      <trkpt lat="45.15815" lon="6.15156">
        <ele>3077</ele>
        <time>2014-03-30T08:43:49.200Z</time>
      </trkpt>
      <trkpt lat="45.15815" lon="6.15141">
        <ele>3078.27899904</ele>
        <time>2014-03-30T08:44:06.930Z</time>
      </trkpt>
      <trkpt lat="45.15823" lon="6.15134">
        <ele>3081</ele>
        <time>2014-03-30T08:44:30.000Z</time>
      </trkpt>
      <trkpt lat="45.15818" lon="6.15125">
        <ele>3086.57899904</ele>
        <time>2014-03-30T08:45:09.930Z</time>
      </trkpt>
      <trkpt lat="45.15811" lon="6.15116">
        <ele>3088</ele>
        <time>2014-03-30T08:45:32.970Z</time>
      </trkpt>
      <trkpt lat="45.15802" lon="6.15117">
        <ele>3091.88599936</ele>
        <time>2014-03-30T08:45:53.000Z</time>
      </trkpt>
      <trkpt lat="45.15793" lon="6.15112">
        <ele>3094</ele>
        <time>2014-03-30T08:46:14.000Z</time>
      </trkpt>
      <trkpt lat="45.15794" lon="6.15098">
        <ele>3100</ele>
        <time>2014-03-30T08:46:57.960Z</time>
      </trkpt>
      <trkpt lat="45.15792" lon="6.15085">
        <ele>3102.15721207</ele>
        <time>2014-03-30T08:47:14.930Z</time>
      </trkpt>
      <trkpt lat="45.15795" lon="6.15072">
        <ele>3105.77199872</ele>
        <time>2014-03-30T08:47:48.000Z</time>
      </trkpt>
      <trkpt lat="45.15798" lon="6.1506">
        <ele>3107.49799936</ele>
        <time>2014-03-30T08:47:59.120Z</time>
      </trkpt>
      <trkpt lat="45.15788" lon="6.15053">
        <ele>3114.28299904</ele>
        <time>2014-03-30T08:48:46.970Z</time>
      </trkpt>
      <trkpt lat="45.15778" lon="6.15058">
        <ele>3117.15799808</ele>
        <time>2014-03-30T08:49:14.930Z</time>
      </trkpt>
      <trkpt lat="45.15767" lon="6.15051">
        <ele>3119</ele>
        <time>2014-03-30T08:49:31.000Z</time>
      </trkpt>
      <trkpt lat="45.15767" lon="6.15039">
        <ele>3121.6832671659</ele>
        <time>2014-03-30T08:49:51.000Z</time>
      </trkpt>
      <trkpt lat="45.15775" lon="6.15033">
        <ele>3123.4238800952</ele>
        <time>2014-03-30T08:50:08.400Z</time>
      </trkpt>
      <trkpt lat="45.15777" lon="6.1502">
        <ele>3127.08299904</ele>
        <time>2014-03-30T08:50:24.970Z</time>
      </trkpt>
      <trkpt lat="45.15779" lon="6.15014">
        <ele>3128</ele>
        <time>2014-03-30T08:50:37.070Z</time>
      </trkpt>
      <trkpt lat="45.1578" lon="6.1501">
        <ele>3128.10799872</ele>
        <time>2014-03-30T08:50:45.220Z</time>
      </trkpt>
      <trkpt lat="45.1577" lon="6.14997">
        <ele>3134.57199872</ele>
        <time>2014-03-30T08:51:22.000Z</time>
      </trkpt>
      <trkpt lat="45.15758" lon="6.14989">
        <ele>3138.57199872</ele>
        <time>2014-03-30T08:52:02.000Z</time>
      </trkpt>
      <trkpt lat="45.15747" lon="6.14988">
        <ele>3142.18299904</ele>
        <time>2014-03-30T08:52:25.970Z</time>
      </trkpt>
      <trkpt lat="45.15747" lon="6.14973">
        <ele>3147.3462674933</ele>
        <time>2014-03-30T08:53:02.000Z</time>
      </trkpt>
      <trkpt lat="45.15747" lon="6.14957">
        <ele>3149.776</ele>
        <time>2014-03-30T08:53:21.900Z</time>
      </trkpt>
      <trkpt lat="45.15751" lon="6.14941">
        <ele>3154.9314391166</ele>
        <time>2014-03-30T08:53:54.000Z</time>
      </trkpt>
      <trkpt lat="45.15747" lon="6.14928">
        <ele>3158.184</ele>
        <time>2014-03-30T08:54:25.980Z</time>
      </trkpt>
      <trkpt lat="45.15736" lon="6.14917">
        <ele>3163.77199872</ele>
        <time>2014-03-30T08:54:58.000Z</time>
      </trkpt>
      <trkpt lat="45.15724" lon="6.14914">
        <ele>3166</ele>
        <time>2014-03-30T08:55:17.910Z</time>
      </trkpt>
      <trkpt lat="45.15719" lon="6.14901">
        <ele>3171</ele>
        <time>2014-03-30T08:55:54.000Z</time>
      </trkpt>
      <trkpt lat="45.15723" lon="6.14889">
        <ele>3172.968503937</ele>
        <time>2014-03-30T08:56:13.980Z</time>
      </trkpt>
      <trkpt lat="45.15728" lon="6.14877">
        <ele>3178.28599936</ele>
        <time>2014-03-30T08:57:07.000Z</time>
      </trkpt>
      <trkpt lat="45.15725" lon="6.14856">
        <ele>3178</ele>
        <time>2014-03-30T09:16:44.910Z</time>
      </trkpt>
      <trkpt lat="45.15727" lon="6.14849">
        <ele>3178.4199936</ele>
        <time>2014-03-30T09:17:14.980Z</time>
      </trkpt>
      <trkpt lat="45.15718" lon="6.14839">
        <ele>3183.68399872</ele>
        <time>2014-03-30T09:17:30.980Z</time>
      </trkpt>
      <trkpt lat="45.15709" lon="6.14829">
        <ele>3185.48199936</ele>
        <time>2014-03-30T09:17:48.960Z</time>
      </trkpt>
      <trkpt lat="45.15701" lon="6.14835">
        <ele>3188.37199872</ele>
        <time>2014-03-30T09:18:21.000Z</time>
      </trkpt>
      <trkpt lat="45.15692" lon="6.14827">
        <ele>3190.79599872</ele>
        <time>2014-03-30T09:18:33.120Z</time>
      </trkpt>
      <trkpt lat="45.15681" lon="6.14824">
        <ele>3192.4792295103</ele>
        <time>2014-03-30T09:18:49.000Z</time>
      </trkpt>
      <trkpt lat="45.15673" lon="6.1482">
        <ele>3196.15799808</ele>
        <time>2014-03-30T09:19:24.930Z</time>
      </trkpt>
      <trkpt lat="45.15664" lon="6.14816">
        <ele>3199.17199872</ele>
        <time>2014-03-30T09:19:45.000Z</time>
      </trkpt>
      <trkpt lat="45.15656" lon="6.14814">
        <ele>3201.13199872</ele>
        <time>2014-03-30T09:20:04.800Z</time>
      </trkpt>
      <trkpt lat="45.15649" lon="6.14809">
        <ele>3205.14799872</ele>
        <time>2014-03-30T09:20:24.880Z</time>
      </trkpt>
      <trkpt lat="45.15647" lon="6.14799">
        <ele>3207</ele>
        <time>2014-03-30T09:20:40.900Z</time>
      </trkpt>
      <trkpt lat="45.15646" lon="6.14785">
        <ele>3209.67299968</ele>
        <time>2014-03-30T09:21:00.870Z</time>
      </trkpt>
      <trkpt lat="45.15647" lon="6.14775">
        <ele>3210.83699712</ele>
        <time>2014-03-30T09:21:16.930Z</time>
      </trkpt>
      <trkpt lat="45.15647" lon="6.14762">
        <ele>3214.2723607566</ele>
        <time>2014-03-30T09:21:36.900Z</time>
      </trkpt>
      <trkpt lat="45.15641" lon="6.14756">
        <ele>3217.22799616</ele>
        <time>2014-03-30T09:22:04.900Z</time>
      </trkpt>
      <trkpt lat="45.15634" lon="6.14759">
        <ele>3220</ele>
        <time>2014-03-30T09:22:21.000Z</time>
      </trkpt>
      <trkpt lat="45.15628" lon="6.14761">
        <ele>3221.79599872</ele>
        <time>2014-03-30T09:22:33.120Z</time>
      </trkpt>
      <trkpt lat="45.15621" lon="6.14763">
        <ele>3223.48599936</ele>
        <time>2014-03-30T09:22:49.000Z</time>
      </trkpt>
      <trkpt lat="45.15613" lon="6.14765">
        <ele>3225.25799808</ele>
        <time>2014-03-30T09:23:05.000Z</time>
      </trkpt>
      <trkpt lat="45.15601" lon="6.14767">
        <ele>3228.68399872</ele>
        <time>2014-03-30T09:23:20.980Z</time>
      </trkpt>
      <trkpt lat="45.1559" lon="6.14764">
        <ele>3230.08399872</ele>
        <time>2014-03-30T09:23:44.980Z</time>
      </trkpt>
      <trkpt lat="45.15585" lon="6.14751">
        <ele>3232.16799744</ele>
        <time>2014-03-30T09:24:04.980Z</time>
      </trkpt>
      <trkpt lat="45.1559" lon="6.14739">
        <ele>3234</ele>
        <time>2014-03-30T09:24:21.000Z</time>
      </trkpt>
      <trkpt lat="45.1558" lon="6.14744">
        <ele>3237.68299904</ele>
        <time>2014-03-30T09:25:00.970Z</time>
      </trkpt>
      <trkpt lat="45.15568" lon="6.14744">
        <ele>3238.89799936</ele>
        <time>2014-03-30T09:25:13.120Z</time>
      </trkpt>
      <trkpt lat="45.15577" lon="6.14737">
        <ele>3240.77199872</ele>
        <time>2014-03-30T09:25:33.000Z</time>
      </trkpt>
      <trkpt lat="45.15581" lon="6.14723">
        <ele>3243</ele>
        <time>2014-03-30T09:25:48.980Z</time>
      </trkpt>
      <trkpt lat="45.15583" lon="6.14705">
        <ele>3244.48399872</ele>
        <time>2014-03-30T09:26:08.980Z</time>
      </trkpt>
      <trkpt lat="45.15593" lon="6.14706">
        <ele>3245.69799936</ele>
        <time>2014-03-30T09:26:21.120Z</time>
      </trkpt>
      <trkpt lat="45.156" lon="6.14693">
        <ele>3250.47899904</ele>
        <time>2014-03-30T09:26:48.930Z</time>
      </trkpt>
      <trkpt lat="45.15602" lon="6.14679">
        <ele>3251.4835816067</ele>
        <time>2014-03-30T09:27:09.000Z</time>
      </trkpt>
      <trkpt lat="45.15603" lon="6.14663">
        <ele>3253.23699712</ele>
        <time>2014-03-30T09:27:24.930Z</time>
      </trkpt>
      <trkpt lat="45.15603" lon="6.14647">
        <ele>3257.08299904</ele>
        <time>2014-03-30T09:27:44.970Z</time>
      </trkpt>
      <trkpt lat="45.15591" lon="6.14654">
        <ele>3262.37199872</ele>
        <time>2014-03-30T09:28:21.000Z</time>
      </trkpt>
      <trkpt lat="45.15581" lon="6.14652">
        <ele>3264.27299968</ele>
        <time>2014-03-30T09:28:36.870Z</time>
      </trkpt>
      <trkpt lat="45.1557" lon="6.14656">
        <ele>3265.88599936</ele>
        <time>2014-03-30T09:28:53.000Z</time>
      </trkpt>
      <trkpt lat="45.1556" lon="6.14653">
        <ele>3270.68599936</ele>
        <time>2014-03-30T09:29:21.000Z</time>
      </trkpt>
      <trkpt lat="45.15548" lon="6.14651">
        <ele>3273.88399872</ele>
        <time>2014-03-30T09:29:52.980Z</time>
      </trkpt>
      <trkpt lat="45.15544" lon="6.14639">
        <ele>3276.56799744</ele>
        <time>2014-03-30T09:30:16.980Z</time>
      </trkpt>
      <trkpt lat="45.15553" lon="6.14629">
        <ele>3280.95799808</ele>
        <time>2014-03-30T09:30:48.930Z</time>
      </trkpt>
      <trkpt lat="45.15556" lon="6.14614">
        <ele>3283</ele>
        <time>2014-03-30T09:31:05.000Z</time>
      </trkpt>
      <trkpt lat="45.15558" lon="6.14601">
        <ele>3283.57199872</ele>
        <time>2014-03-30T09:31:17.000Z</time>
      </trkpt>
      <trkpt lat="45.1555" lon="6.14611">
        <ele>3286.28599936</ele>
        <time>2014-03-30T09:31:37.000Z</time>
      </trkpt>
      <trkpt lat="45.1554" lon="6.14612">
        <ele>3290</ele>
        <time>2014-03-30T09:32:04.920Z</time>
      </trkpt>
      <trkpt lat="45.15548" lon="6.14601">
        <ele>3292.08599936</ele>
        <time>2014-03-30T09:32:25.000Z</time>
      </trkpt>
      <trkpt lat="45.15552" lon="6.14585">
        <ele>3294.476616112</ele>
        <time>2014-03-30T09:32:48.930Z</time>
      </trkpt>
      <trkpt lat="45.15558" lon="6.14574">
        <ele>3297</ele>
        <time>2014-03-30T09:33:17.000Z</time>
      </trkpt>
      <trkpt lat="45.15565" lon="6.1456">
        <ele>3300</ele>
        <time>2014-03-30T09:33:37.000Z</time>
      </trkpt>
      <trkpt lat="45.15572" lon="6.14549">
        <ele>3301.37199872</ele>
        <time>2014-03-30T09:34:01.000Z</time>
      </trkpt>
      <trkpt lat="45.15577" lon="6.1453">
        <ele>3304.08599936</ele>
        <time>2014-03-30T09:34:25.000Z</time>
      </trkpt>
      <trkpt lat="45.15565" lon="6.14531">
        <ele>3307.28599936</ele>
        <time>2014-03-30T09:34:57.000Z</time>
      </trkpt>
      <trkpt lat="45.1556" lon="6.14545">
        <ele>3310.35799808</ele>
        <time>2014-03-30T09:35:20.930Z</time>
      </trkpt>
      <trkpt lat="45.15548" lon="6.14546">
        <ele>3313.3651732904</ele>
        <time>2014-03-30T09:35:41.000Z</time>
      </trkpt>
      <trkpt lat="45.15537" lon="6.14543">
        <ele>3315</ele>
        <time>2014-03-30T09:36:00.980Z</time>
      </trkpt>
      <trkpt lat="45.15538" lon="6.14528">
        <ele>3321.08599936</ele>
        <time>2014-03-30T09:36:45.000Z</time>
      </trkpt>
      <trkpt lat="45.15535" lon="6.1451">
        <ele>3322.68599936</ele>
        <time>2014-03-30T09:37:01.000Z</time>
      </trkpt>
      <trkpt lat="45.15524" lon="6.14511">
        <ele>3332.0849797122</ele>
        <time>2014-03-30T09:38:25.000Z</time>
      </trkpt>
      <trkpt lat="45.1551" lon="6.1451">
        <ele>3333.24899712</ele>
        <time>2014-03-30T09:38:44.970Z</time>
      </trkpt>
      <trkpt lat="45.15515" lon="6.14497">
        <ele>3337.57199872</ele>
        <time>2014-03-30T09:39:17.000Z</time>
      </trkpt>
      <trkpt lat="45.1552" lon="6.14484">
        <ele>3339.68599936</ele>
        <time>2014-03-30T09:39:41.000Z</time>
      </trkpt>
      <trkpt lat="45.1552" lon="6.14467">
        <ele>3344.56599808</ele>
        <time>2014-03-30T09:40:16.970Z</time>
      </trkpt>
      <trkpt lat="45.15511" lon="6.14478">
        <ele>3348</ele>
        <time>2014-03-30T09:40:48.970Z</time>
      </trkpt>
      <trkpt lat="45.15503" lon="6.14487">
        <ele>3352.0814066874</ele>
        <time>2014-03-30T09:41:25.000Z</time>
      </trkpt>
      <trkpt lat="45.1549" lon="6.14494">
        <ele>3355</ele>
        <time>2014-03-30T09:41:49.000Z</time>
      </trkpt>
      <trkpt lat="45.15479" lon="6.14502">
        <ele>3357.08599936</ele>
        <time>2014-03-30T09:42:05.000Z</time>
      </trkpt>
      <trkpt lat="45.15471" lon="6.14513">
        <ele>3360.88399872</ele>
        <time>2014-03-30T09:42:52.980Z</time>
      </trkpt>
      <trkpt lat="45.15461" lon="6.14515">
        <ele>3362.88299904</ele>
        <time>2014-03-30T09:43:12.970Z</time>
      </trkpt>
      <trkpt lat="45.15461" lon="6.14501">
        <ele>3370</ele>
        <time>2014-03-30T09:44:46.000Z</time>
      </trkpt>
      <trkpt lat="45.15466" lon="6.14485">
        <ele>3375.57899904</ele>
        <time>2014-03-30T09:45:49.930Z</time>
      </trkpt>
      <trkpt lat="45.15466" lon="6.14469">
        <ele>3376.55799808</ele>
        <time>2014-03-30T09:46:06.000Z</time>
      </trkpt>
      <trkpt lat="45.15458" lon="6.14456">
        <ele>3386</ele>
        <time>2014-03-30T09:48:22.000Z</time>
      </trkpt>
      <trkpt lat="45.15454" lon="6.1447">
        <ele>3389</ele>
        <time>2014-03-30T09:49:09.930Z</time>
      </trkpt>
      <trkpt lat="45.15454" lon="6.14455">
        <ele>3394</ele>
        <time>2014-03-30T09:50:09.980Z</time>
      </trkpt>
      <trkpt lat="45.15446" lon="6.14464">
        <ele>3398.17899904</ele>
        <time>2014-03-30T09:51:45.930Z</time>
      </trkpt>
      <trkpt lat="45.15448" lon="6.14447">
        <ele>3401</ele>
        <time>2014-03-30T09:53:05.930Z</time>
      </trkpt>
      <trkpt lat="45.15438" lon="6.1445">
        <ele>3403</ele>
        <time>2014-03-30T09:54:33.930Z</time>
      </trkpt>
      <trkpt lat="45.1543" lon="6.14444">
        <ele>3410</ele>
        <time>2014-03-30T09:57:30.000Z</time>
      </trkpt>
      <trkpt lat="45.15435" lon="6.14434">
        <ele>3413.85199616</ele>
        <time>2014-03-30T10:04:36.980Z</time>
      </trkpt>
      <trkpt lat="45.15428" lon="6.14428">
        <ele>3417.08599936</ele>
        <time>2014-03-30T10:04:55.000Z</time>
      </trkpt>
      <trkpt lat="45.15432" lon="6.14416">
        <ele>3421</ele>
        <time>2014-03-30T10:05:31.970Z</time>
      </trkpt>
      <trkpt lat="45.1544" lon="6.14409">
        <ele>3425</ele>
        <time>2014-03-30T10:06:04.930Z</time>
      </trkpt>
      <trkpt lat="45.15444" lon="6.14397">
        <ele>3428.25199616</ele>
        <time>2014-03-30T10:06:34.980Z</time>
      </trkpt>
      <trkpt lat="45.15435" lon="6.14448">
        <ele>3406</ele>
        <time>2014-03-30T10:41:37.230Z</time>
      </trkpt>
      <trkpt lat="45.15443" lon="6.14446">
        <ele>3405.41400064</ele>
        <time>2014-03-30T10:44:02.000Z</time>
      </trkpt>
      <trkpt lat="45.15433" lon="6.14452">
        <ele>3406</ele>
        <time>2014-03-30T10:47:53.970Z</time>
      </trkpt>
      <trkpt lat="45.15444" lon="6.14445">
        <ele>3406</ele>
        <time>2014-03-30T10:50:21.960Z</time>
      </trkpt>
      <trkpt lat="45.15452" lon="6.14454">
        <ele>3394.20800768</ele>
        <time>2014-03-30T10:50:41.800Z</time>
      </trkpt>
      <trkpt lat="45.15456" lon="6.14468">
        <ele>3387.80600192</ele>
        <time>2014-03-30T10:50:50.120Z</time>
      </trkpt>
      <trkpt lat="45.15464" lon="6.14482">
        <ele>3380.71200512</ele>
        <time>2014-03-30T10:51:14.000Z</time>
      </trkpt>
      <trkpt lat="45.15472" lon="6.14487">
        <ele>3369.1337227907</ele>
        <time>2014-03-30T10:52:06.000Z</time>
      </trkpt>
      <trkpt lat="45.15478" lon="6.14503">
        <ele>3363.896</ele>
        <time>2014-03-30T10:52:37.980Z</time>
      </trkpt>
      <trkpt lat="45.15485" lon="6.14523">
        <ele>3352.87200512</ele>
        <time>2014-03-30T10:52:53.800Z</time>
      </trkpt>
      <trkpt lat="45.15473" lon="6.14568">
        <ele>3346.95400448</ele>
        <time>2014-03-30T10:53:01.920Z</time>
      </trkpt>
      <trkpt lat="45.15462" lon="6.14604">
        <ele>3342.80600192</ele>
        <time>2014-03-30T10:53:10.120Z</time>
      </trkpt>
      <trkpt lat="45.15454" lon="6.14626">
        <ele>3340.843196114</ele>
        <time>2014-03-30T10:53:17.730Z</time>
      </trkpt>
      <trkpt lat="45.15449" lon="6.14644">
        <ele>3340.0345171027</ele>
        <time>2014-03-30T10:53:25.930Z</time>
      </trkpt>
      <trkpt lat="45.15469" lon="6.14636">
        <ele>3328.073030054</ele>
        <time>2014-03-30T10:53:34.120Z</time>
      </trkpt>
      <trkpt lat="45.1548" lon="6.14637">
        <ele>3319.2200064</ele>
        <time>2014-03-30T10:53:41.920Z</time>
      </trkpt>
      <trkpt lat="45.1549" lon="6.14649">
        <ele>3310.08600832</ele>
        <time>2014-03-30T10:53:49.920Z</time>
      </trkpt>
      <trkpt lat="45.15501" lon="6.14656">
        <ele>3300.61400448</ele>
        <time>2014-03-30T10:53:58.120Z</time>
      </trkpt>
      <trkpt lat="45.15501" lon="6.14683">
        <ele>3288.47200512</ele>
        <time>2014-03-30T10:54:21.800Z</time>
      </trkpt>
      <trkpt lat="45.15479" lon="6.14735">
        <ele>3282.29800448</ele>
        <time>2014-03-30T10:54:30.000Z</time>
      </trkpt>
      <trkpt lat="45.15458" lon="6.14775">
        <ele>3277.67400192</ele>
        <time>2014-03-30T10:54:37.770Z</time>
      </trkpt>
      <trkpt lat="45.15458" lon="6.14792">
        <ele>3275.6358214164</ele>
        <time>2014-03-30T10:54:49.800Z</time>
      </trkpt>
      <trkpt lat="45.15451" lon="6.14822">
        <ele>3273.3175904104</ele>
        <time>2014-03-30T10:55:01.770Z</time>
      </trkpt>
      <trkpt lat="45.15452" lon="6.14838">
        <ele>3272</ele>
        <time>2014-03-30T10:55:14.120Z</time>
      </trkpt>
      <trkpt lat="45.15465" lon="6.1486">
        <ele>3258.752</ele>
        <time>2014-03-30T10:55:21.900Z</time>
      </trkpt>
      <trkpt lat="45.15488" lon="6.14894">
        <ele>3239.4</ele>
        <time>2014-03-30T10:55:29.980Z</time>
      </trkpt>
      <trkpt lat="45.15521" lon="6.14936">
        <ele>3220.8816655663</ele>
        <time>2014-03-30T10:55:38.000Z</time>
      </trkpt>
      <trkpt lat="45.15549" lon="6.1498">
        <ele>3207.4694283042</ele>
        <time>2014-03-30T10:55:46.000Z</time>
      </trkpt>
      <trkpt lat="45.15546" lon="6.15021">
        <ele>3198.2535553729</ele>
        <time>2014-03-30T10:55:54.120Z</time>
      </trkpt>
      <trkpt lat="45.15536" lon="6.15025">
        <ele>3196</ele>
        <time>2014-03-30T10:56:06.120Z</time>
      </trkpt>
      <trkpt lat="45.15538" lon="6.15009">
        <ele>3198</ele>
        <time>2014-03-30T10:57:17.930Z</time>
      </trkpt>
      <trkpt lat="45.15528" lon="6.15021">
        <ele>3196</ele>
        <time>2014-03-30T10:57:46.000Z</time>
      </trkpt>
      <trkpt lat="45.15523" lon="6.15035">
        <ele>3197.67400192</ele>
        <time>2014-03-30T10:57:57.770Z</time>
      </trkpt>
      <trkpt lat="45.15529" lon="6.1502">
        <ele>3196</ele>
        <time>2014-03-30T10:58:17.980Z</time>
      </trkpt>
      <trkpt lat="45.15536" lon="6.15007">
        <ele>3196</ele>
        <time>2014-03-30T10:58:34.000Z</time>
      </trkpt>
      <trkpt lat="45.1554" lon="6.15021">
        <ele>3194.1700096</ele>
        <time>2014-03-30T11:01:29.970Z</time>
      </trkpt>
      <trkpt lat="45.15546" lon="6.15045">
        <ele>3181.86201984</ele>
        <time>2014-03-30T11:01:38.120Z</time>
      </trkpt>
      <trkpt lat="45.15553" lon="6.15087">
        <ele>3157.68201984</ele>
        <time>2014-03-30T11:01:45.920Z</time>
      </trkpt>
      <trkpt lat="45.15572" lon="6.15115">
        <ele>3141.0400128</ele>
        <time>2014-03-30T11:01:54.120Z</time>
      </trkpt>
      <trkpt lat="45.15592" lon="6.15152">
        <ele>3128.40400384</ele>
        <time>2014-03-30T11:02:13.800Z</time>
      </trkpt>
      <trkpt lat="45.15611" lon="6.15181">
        <ele>3114.44201344</ele>
        <time>2014-03-30T11:02:22.120Z</time>
      </trkpt>
      <trkpt lat="45.15621" lon="6.15212">
        <ele>3099.23401088</ele>
        <time>2014-03-30T11:02:30.120Z</time>
      </trkpt>
      <trkpt lat="45.15624" lon="6.15244">
        <ele>3087.35300864</ele>
        <time>2014-03-30T11:02:37.970Z</time>
      </trkpt>
      <trkpt lat="45.15621" lon="6.15259">
        <ele>3079.60200064</ele>
        <time>2014-03-30T11:02:50.120Z</time>
      </trkpt>
      <trkpt lat="45.15632" lon="6.15275">
        <ele>3071.28302208</ele>
        <time>2014-03-30T11:03:49.930Z</time>
      </trkpt>
      <trkpt lat="45.15675" lon="6.15319">
        <ele>3054.2875602056</ele>
        <time>2014-03-30T11:03:57.970Z</time>
      </trkpt>
      <trkpt lat="45.15703" lon="6.15351">
        <ele>3042.4298376978</ele>
        <time>2014-03-30T11:04:05.970Z</time>
      </trkpt>
      <trkpt lat="45.15695" lon="6.15382">
        <ele>3031.03700096</ele>
        <time>2014-03-30T11:04:25.770Z</time>
      </trkpt>
      <trkpt lat="45.15686" lon="6.15373">
        <ele>3031</ele>
        <time>2014-03-30T11:04:42.000Z</time>
      </trkpt>
      <trkpt lat="45.15683" lon="6.1536">
        <ele>3032</ele>
        <time>2014-03-30T11:05:02.000Z</time>
      </trkpt>
      <trkpt lat="45.15684" lon="6.15375">
        <ele>3031.4160809114</ele>
        <time>2014-03-30T11:06:22.000Z</time>
      </trkpt>
      <trkpt lat="45.15695" lon="6.15392">
        <ele>3021.3804910456</ele>
        <time>2014-03-30T11:07:06.000Z</time>
      </trkpt>
      <trkpt lat="45.1569" lon="6.15418">
        <ele>3004</ele>
        <time>2014-03-30T11:07:37.800Z</time>
      </trkpt>
      <trkpt lat="45.15685" lon="6.15436">
        <ele>2994.73601536</ele>
        <time>2014-03-30T11:07:50.000Z</time>
      </trkpt>
      <trkpt lat="45.15689" lon="6.15472">
        <ele>2975.660096329</ele>
        <time>2014-03-30T11:07:57.970Z</time>
      </trkpt>
      <trkpt lat="45.15687" lon="6.15515">
        <ele>2956.6877403165</ele>
        <time>2014-03-30T11:08:05.970Z</time>
      </trkpt>
      <trkpt lat="45.15694" lon="6.15561">
        <ele>2938.4979841322</ele>
        <time>2014-03-30T11:08:14.120Z</time>
      </trkpt>
      <trkpt lat="45.15701" lon="6.15593">
        <ele>2927.2605333627</ele>
        <time>2014-03-30T11:08:25.970Z</time>
      </trkpt>
      <trkpt lat="45.15691" lon="6.15596">
        <ele>2927</ele>
        <time>2014-03-30T11:10:41.800Z</time>
      </trkpt>
      <trkpt lat="45.15705" lon="6.15624">
        <ele>2916.03801344</ele>
        <time>2014-03-30T11:10:53.970Z</time>
      </trkpt>
      <trkpt lat="45.15723" lon="6.157">
        <ele>2895.0600192</ele>
        <time>2014-03-30T11:11:02.120Z</time>
      </trkpt>
      <trkpt lat="45.15758" lon="6.15777">
        <ele>2874.95702016</ele>
        <time>2014-03-30T11:11:09.970Z</time>
      </trkpt>
      <trkpt lat="45.15801" lon="6.15845">
        <ele>2859.6521785324</ele>
        <time>2014-03-30T11:11:18.120Z</time>
      </trkpt>
      <trkpt lat="45.15839" lon="6.15904">
        <ele>2850.1660005262</ele>
        <time>2014-03-30T11:11:26.120Z</time>
      </trkpt>
      <trkpt lat="45.15866" lon="6.15976">
        <ele>2842.2469671294</ele>
        <time>2014-03-30T11:11:33.920Z</time>
      </trkpt>
      <trkpt lat="45.159" lon="6.16037">
        <ele>2833.80701056</ele>
        <time>2014-03-30T11:11:41.770Z</time>
      </trkpt>
      <trkpt lat="45.15936" lon="6.16088">
        <ele>2825.1890630652</ele>
        <time>2014-03-30T11:11:49.970Z</time>
      </trkpt>
      <trkpt lat="45.15966" lon="6.1613">
        <ele>2817.2061473003</ele>
        <time>2014-03-30T11:11:58.000Z</time>
      </trkpt>
      <trkpt lat="45.16004" lon="6.16171">
        <ele>2809.2775025657</ele>
        <time>2014-03-30T11:12:06.000Z</time>
      </trkpt>
      <trkpt lat="45.1605" lon="6.16207">
        <ele>2800.2535553729</ele>
        <time>2014-03-30T11:12:14.120Z</time>
      </trkpt>
      <trkpt lat="45.16092" lon="6.16255">
        <ele>2789.96400896</ele>
        <time>2014-03-30T11:12:21.880Z</time>
      </trkpt>
      <trkpt lat="45.16145" lon="6.16305">
        <ele>2779.392</ele>
        <time>2014-03-30T11:12:29.980Z</time>
      </trkpt>
      <trkpt lat="45.16191" lon="6.16354">
        <ele>2770.0355092926</ele>
        <time>2014-03-30T11:12:37.800Z</time>
      </trkpt>
      <trkpt lat="45.16239" lon="6.16402">
        <ele>2760.3313611559</ele>
        <time>2014-03-30T11:12:46.000Z</time>
      </trkpt>
      <trkpt lat="45.16284" lon="6.16447">
        <ele>2750.4584240432</ele>
        <time>2014-03-30T11:12:54.120Z</time>
      </trkpt>
      <trkpt lat="45.16327" lon="6.16484">
        <ele>2739.62800896</ele>
        <time>2014-03-30T11:13:02.120Z</time>
      </trkpt>
      <trkpt lat="45.16379" lon="6.16522">
        <ele>2729.78701056</ele>
        <time>2014-03-30T11:13:09.970Z</time>
      </trkpt>
      <trkpt lat="45.16425" lon="6.16555">
        <ele>2721.2391338993</ele>
        <time>2014-03-30T11:13:18.120Z</time>
      </trkpt>
      <trkpt lat="45.16476" lon="6.1658">
        <ele>2714.1245003946</ele>
        <time>2014-03-30T11:13:26.120Z</time>
      </trkpt>
      <trkpt lat="45.16531" lon="6.16603">
        <ele>2707.6356305935</ele>
        <time>2014-03-30T11:13:34.120Z</time>
      </trkpt>
      <trkpt lat="45.16585" lon="6.16608">
        <ele>2701.21600512</ele>
        <time>2014-03-30T11:13:42.120Z</time>
      </trkpt>
      <trkpt lat="45.16638" lon="6.16615">
        <ele>2694.81600512</ele>
        <time>2014-03-30T11:13:50.120Z</time>
      </trkpt>
      <trkpt lat="45.16688" lon="6.16621">
        <ele>2688.7159799391</ele>
        <time>2014-03-30T11:13:58.000Z</time>
      </trkpt>
      <trkpt lat="45.16744" lon="6.1663">
        <ele>2683.1932940076</ele>
        <time>2014-03-30T11:14:06.000Z</time>
      </trkpt>
      <trkpt lat="45.16752" lon="6.16625">
        <ele>2681</ele>
        <time>2014-03-30T11:14:54.000Z</time>
      </trkpt>
      <trkpt lat="45.16765" lon="6.16631">
        <ele>2681.232</ele>
        <time>2014-03-30T11:16:09.980Z</time>
      </trkpt>
      <trkpt lat="45.1681" lon="6.16679">
        <ele>2672.5600256</ele>
        <time>2014-03-30T11:16:18.000Z</time>
      </trkpt>
      <trkpt lat="45.16907" lon="6.16763">
        <ele>2641.3600256</ele>
        <time>2014-03-30T11:16:25.800Z</time>
      </trkpt>
      <trkpt lat="45.16995" lon="6.16865">
        <ele>2630.66400768</ele>
        <time>2014-03-30T11:16:33.920Z</time>
      </trkpt>
      <trkpt lat="45.17044" lon="6.16873">
        <ele>2629.19599872</ele>
        <time>2014-03-30T11:16:42.120Z</time>
      </trkpt>
      <trkpt lat="45.17067" lon="6.16866">
        <ele>2630</ele>
        <time>2014-03-30T11:16:49.770Z</time>
      </trkpt>
      <trkpt lat="45.17065" lon="6.16857">
        <ele>2632</ele>
        <time>2014-03-30T11:17:49.970Z</time>
      </trkpt>
      <trkpt lat="45.17063" lon="6.16861">
        <ele>2632</ele>
        <time>2014-03-30T11:18:59.650Z</time>
      </trkpt>
      <trkpt lat="45.1712" lon="6.16832">
        <ele>2635.7900094728</ele>
        <time>2014-03-30T11:25:34.120Z</time>
      </trkpt>
      <trkpt lat="45.17125" lon="6.16846">
        <ele>2636</ele>
        <time>2014-03-30T11:25:44.920Z</time>
      </trkpt>
      <trkpt lat="45.17134" lon="6.16849">
        <ele>2637.36600064</ele>
        <time>2014-03-30T11:25:58.800Z</time>
      </trkpt>
      <trkpt lat="45.17141" lon="6.16862">
        <ele>2638.46600064</ele>
        <time>2014-03-30T11:26:09.800Z</time>
      </trkpt>
      <trkpt lat="45.1714" lon="6.16877">
        <ele>2640</ele>
        <time>2014-03-30T11:26:25.800Z</time>
      </trkpt>
      <trkpt lat="45.17148" lon="6.16887">
        <ele>2640</ele>
        <time>2014-03-30T11:26:33.800Z</time>
      </trkpt>
      <trkpt lat="45.17151" lon="6.169">
        <ele>2642.72600064</ele>
        <time>2014-03-30T11:26:48.770Z</time>
      </trkpt>
      <trkpt lat="45.17155" lon="6.16914">
        <ele>2644.36600064</ele>
        <time>2014-03-30T11:26:58.800Z</time>
      </trkpt>
      <trkpt lat="45.17158" lon="6.16921">
        <ele>2645.782089442</ele>
        <time>2014-03-30T11:27:23.000Z</time>
      </trkpt>
      <trkpt lat="45.17163" lon="6.16929">
        <ele>2647.1276386357</ele>
        <time>2014-03-30T11:27:30.800Z</time>
      </trkpt>
      <trkpt lat="45.17167" lon="6.16938">
        <ele>2648</ele>
        <time>2014-03-30T11:27:38.020Z</time>
      </trkpt>
      <trkpt lat="45.17173" lon="6.16945">
        <ele>2648</ele>
        <time>2014-03-30T11:27:44.020Z</time>
      </trkpt>
      <trkpt lat="45.17178" lon="6.16953">
        <ele>2647.41199872</ele>
        <time>2014-03-30T11:27:51.020Z</time>
      </trkpt>
      <trkpt lat="45.17184" lon="6.16961">
        <ele>2647</ele>
        <time>2014-03-30T11:27:57.870Z</time>
      </trkpt>
      <trkpt lat="45.1719" lon="6.16969">
        <ele>2647</ele>
        <time>2014-03-30T11:28:04.870Z</time>
      </trkpt>
      <trkpt lat="45.17196" lon="6.16977">
        <ele>2647</ele>
        <time>2014-03-30T11:28:11.120Z</time>
      </trkpt>
      <trkpt lat="45.17201" lon="6.16984">
        <ele>2647</ele>
        <time>2014-03-30T11:28:17.120Z</time>
      </trkpt>
      <trkpt lat="45.17205" lon="6.16991">
        <ele>2647</ele>
        <time>2014-03-30T11:28:23.120Z</time>
      </trkpt>
      <trkpt lat="45.1721" lon="6.16999">
        <ele>2647</ele>
        <time>2014-03-30T11:28:29.120Z</time>
      </trkpt>
      <trkpt lat="45.17214" lon="6.17007">
        <ele>2647</ele>
        <time>2014-03-30T11:28:35.830Z</time>
      </trkpt>
      <trkpt lat="45.1722" lon="6.17016">
        <ele>2647</ele>
        <time>2014-03-30T11:28:42.830Z</time>
      </trkpt>
      <trkpt lat="45.17227" lon="6.17025">
        <ele>2647.4702387302</ele>
        <time>2014-03-30T11:28:49.910Z</time>
      </trkpt>
      <trkpt lat="45.17233" lon="6.17031">
        <ele>2647.9662704762</ele>
        <time>2014-03-30T11:28:54.910Z</time>
      </trkpt>
      <trkpt lat="45.17247" lon="6.17042">
        <ele>2646</ele>
        <time>2014-03-30T11:29:05.970Z</time>
      </trkpt>
      <trkpt lat="45.17254" lon="6.17047">
        <ele>2646</ele>
        <time>2014-03-30T11:29:10.970Z</time>
      </trkpt>
      <trkpt lat="45.17268" lon="6.17058">
        <ele>2646</ele>
        <time>2014-03-30T11:29:21.120Z</time>
      </trkpt>
      <trkpt lat="45.17285" lon="6.17074">
        <ele>2644.4695306586</ele>
        <time>2014-03-30T11:29:32.800Z</time>
      </trkpt>
      <trkpt lat="45.17298" lon="6.17092">
        <ele>2641.0620576372</ele>
        <time>2014-03-30T11:29:41.020Z</time>
      </trkpt>
      <trkpt lat="45.17311" lon="6.1711">
        <ele>2637.85099904</ele>
        <time>2014-03-30T11:29:48.970Z</time>
      </trkpt>
      <trkpt lat="45.1732" lon="6.17127">
        <ele>2635.8211141126</ele>
        <time>2014-03-30T11:29:56.970Z</time>
      </trkpt>
      <trkpt lat="45.17329" lon="6.17143">
        <ele>2635.039100672</ele>
        <time>2014-03-30T11:30:04.970Z</time>
      </trkpt>
      <trkpt lat="45.17336" lon="6.17156">
        <ele>2635</ele>
        <time>2014-03-30T11:30:13.020Z</time>
      </trkpt>
      <trkpt lat="45.17342" lon="6.17169">
        <ele>2635</ele>
        <time>2014-03-30T11:30:20.970Z</time>
      </trkpt>
      <trkpt lat="45.17348" lon="6.17182">
        <ele>2634.6023973443</ele>
        <time>2014-03-30T11:30:29.120Z</time>
      </trkpt>
      <trkpt lat="45.17354" lon="6.17196">
        <ele>2634</ele>
        <time>2014-03-30T11:30:36.970Z</time>
      </trkpt>
      <trkpt lat="45.1736" lon="6.17209">
        <ele>2634</ele>
        <time>2014-03-30T11:30:44.970Z</time>
      </trkpt>
      <trkpt lat="45.17366" lon="6.1722">
        <ele>2633.2165464023</ele>
        <time>2014-03-30T11:30:53.020Z</time>
      </trkpt>
      <trkpt lat="45.17371" lon="6.17234">
        <ele>2633</ele>
        <time>2014-03-30T11:31:00.870Z</time>
      </trkpt>
      <trkpt lat="45.17378" lon="6.1725">
        <ele>2633</ele>
        <time>2014-03-30T11:31:08.970Z</time>
      </trkpt>
      <trkpt lat="45.17387" lon="6.17265">
        <ele>2632.41699968</ele>
        <time>2014-03-30T11:31:20.970Z</time>
      </trkpt>
      <trkpt lat="45.17397" lon="6.17272">
        <ele>2632</ele>
        <time>2014-03-30T11:31:28.700Z</time>
      </trkpt>
      <trkpt lat="45.1741" lon="6.17282">
        <ele>2632</ele>
        <time>2014-03-30T11:31:36.920Z</time>
      </trkpt>
      <trkpt lat="45.17419" lon="6.17294">
        <ele>2632</ele>
        <time>2014-03-30T11:31:49.000Z</time>
      </trkpt>
      <trkpt lat="45.17428" lon="6.17303">
        <ele>2631.6723254291</ele>
        <time>2014-03-30T11:31:56.780Z</time>
      </trkpt>
      <trkpt lat="45.17441" lon="6.1731">
        <ele>2630</ele>
        <time>2014-03-30T11:32:08.930Z</time>
      </trkpt>
      <trkpt lat="45.17456" lon="6.17323">
        <ele>2629.8362913854</ele>
        <time>2014-03-30T11:32:16.800Z</time>
      </trkpt>
      <trkpt lat="45.17464" lon="6.17335">
        <ele>2629.0276133948</ele>
        <time>2014-03-30T11:32:25.000Z</time>
      </trkpt>
      <trkpt lat="45.17475" lon="6.17342">
        <ele>2629.5655657887</ele>
        <time>2014-03-30T11:32:40.800Z</time>
      </trkpt>
      <trkpt lat="45.17487" lon="6.1735">
        <ele>2630</ele>
        <time>2014-03-30T11:32:52.700Z</time>
      </trkpt>
      <trkpt lat="45.17497" lon="6.17357">
        <ele>2632.7256281976</ele>
        <time>2014-03-30T11:33:08.800Z</time>
      </trkpt>
      <trkpt lat="45.17508" lon="6.17361">
        <ele>2634</ele>
        <time>2014-03-30T11:33:20.770Z</time>
      </trkpt>
      <trkpt lat="45.17521" lon="6.17362">
        <ele>2634.776</ele>
        <time>2014-03-30T11:33:32.900Z</time>
      </trkpt>
      <trkpt lat="45.17535" lon="6.17366">
        <ele>2635.36600064</ele>
        <time>2014-03-30T11:33:48.800Z</time>
      </trkpt>
      <trkpt lat="45.17548" lon="6.17365">
        <ele>2636</ele>
        <time>2014-03-30T11:34:00.770Z</time>
      </trkpt>
      <trkpt lat="45.17561" lon="6.1737">
        <ele>2636</ele>
        <time>2014-03-30T11:34:12.910Z</time>
      </trkpt>
      <trkpt lat="45.17573" lon="6.17372">
        <ele>2636</ele>
        <time>2014-03-30T11:34:24.970Z</time>
      </trkpt>
      <trkpt lat="45.17583" lon="6.17378">
        <ele>2636</ele>
        <time>2014-03-30T11:34:33.120Z</time>
      </trkpt>
      <trkpt lat="45.17596" lon="6.17384">
        <ele>2636</ele>
        <time>2014-03-30T11:34:45.120Z</time>
      </trkpt>
      <trkpt lat="45.17607" lon="6.17383">
        <ele>2636.83799936</ele>
        <time>2014-03-30T11:34:56.760Z</time>
      </trkpt>
      <trkpt lat="45.17618" lon="6.17382">
        <ele>2636.03799936</ele>
        <time>2014-03-30T11:35:04.760Z</time>
      </trkpt>
      <trkpt lat="45.17628" lon="6.1739">
        <ele>2636.77800064</ele>
        <time>2014-03-30T11:35:12.920Z</time>
      </trkpt>
      <trkpt lat="45.17637" lon="6.17402">
        <ele>2637</ele>
        <time>2014-03-30T11:35:21.120Z</time>
      </trkpt>
      <trkpt lat="45.17647" lon="6.17408">
        <ele>2637.7552453097</ele>
        <time>2014-03-30T11:35:32.700Z</time>
      </trkpt>
      <trkpt lat="45.17658" lon="6.17411">
        <ele>2638.9723033916</ele>
        <time>2014-03-30T11:35:44.980Z</time>
      </trkpt>
      <trkpt lat="45.17671" lon="6.17409">
        <ele>2639</ele>
        <time>2014-03-30T11:35:56.920Z</time>
      </trkpt>
      <trkpt lat="45.17682" lon="6.1741">
        <ele>2639</ele>
        <time>2014-03-30T11:36:04.920Z</time>
      </trkpt>
      <trkpt lat="45.17693" lon="6.17413">
        <ele>2640</ele>
        <time>2014-03-30T11:36:16.800Z</time>
      </trkpt>
      <trkpt lat="45.17701" lon="6.17425">
        <ele>2640.3636372936</ele>
        <time>2014-03-30T11:36:28.780Z</time>
      </trkpt>
      <trkpt lat="45.17715" lon="6.1743">
        <ele>2641</ele>
        <time>2014-03-30T11:36:44.730Z</time>
      </trkpt>
      <trkpt lat="45.17725" lon="6.17437">
        <ele>2641</ele>
        <time>2014-03-30T11:36:53.120Z</time>
      </trkpt>
      <trkpt lat="45.17739" lon="6.1744">
        <ele>2641</ele>
        <time>2014-03-30T11:37:05.120Z</time>
      </trkpt>
      <trkpt lat="45.17751" lon="6.17439">
        <ele>2641.16400128</ele>
        <time>2014-03-30T11:37:16.780Z</time>
      </trkpt>
      <trkpt lat="45.17763" lon="6.17441">
        <ele>2642.7312693087</ele>
        <time>2014-03-30T11:37:28.800Z</time>
      </trkpt>
      <trkpt lat="45.17774" lon="6.17444">
        <ele>2646.76600064</ele>
        <time>2014-03-30T11:37:52.800Z</time>
      </trkpt>
      <trkpt lat="45.17782" lon="6.17434">
        <ele>2648.89200128</ele>
        <time>2014-03-30T11:38:04.600Z</time>
      </trkpt>
      <trkpt lat="45.17796" lon="6.17435">
        <ele>2649</ele>
        <time>2014-03-30T11:38:21.000Z</time>
      </trkpt>
      <trkpt lat="45.17807" lon="6.17432">
        <ele>2649.7752265892</ele>
        <time>2014-03-30T11:38:29.020Z</time>
      </trkpt>
      <trkpt lat="45.17818" lon="6.17436">
        <ele>2653.7547749192</ele>
        <time>2014-03-30T11:38:52.700Z</time>
      </trkpt>
      <trkpt lat="45.17831" lon="6.1744">
        <ele>2657</ele>
        <time>2014-03-30T11:39:16.670Z</time>
      </trkpt>
      <trkpt lat="45.17843" lon="6.17443">
        <ele>2657</ele>
        <time>2014-03-30T11:39:24.870Z</time>
      </trkpt>
      <trkpt lat="45.17853" lon="6.17443">
        <ele>2657</ele>
        <time>2014-03-30T11:39:33.120Z</time>
      </trkpt>
      <trkpt lat="45.17867" lon="6.17442">
        <ele>2656.0276966084</ele>
        <time>2014-03-30T11:39:44.980Z</time>
      </trkpt>
      <trkpt lat="45.17876" lon="6.17445">
        <ele>2656</ele>
        <time>2014-03-30T11:39:52.980Z</time>
      </trkpt>
      <trkpt lat="45.17891" lon="6.17447">
        <ele>2653.8181813532</ele>
        <time>2014-03-30T11:40:00.600Z</time>
      </trkpt>
      <trkpt lat="45.17904" lon="6.17466">
        <ele>2651.602602541</ele>
        <time>2014-03-30T11:40:09.120Z</time>
      </trkpt>
      <trkpt lat="45.17919" lon="6.17473">
        <ele>2651</ele>
        <time>2014-03-30T11:40:16.870Z</time>
      </trkpt>
      <trkpt lat="45.17928" lon="6.1748">
        <ele>2651</ele>
        <time>2014-03-30T11:40:28.880Z</time>
      </trkpt>
      <trkpt lat="45.17935" lon="6.17493">
        <ele>2652.71200256</ele>
        <time>2014-03-30T11:40:48.700Z</time>
      </trkpt>
      <trkpt lat="45.17945" lon="6.17497">
        <ele>2655.65900288</ele>
        <time>2014-03-30T11:41:00.670Z</time>
      </trkpt>
      <trkpt lat="45.17954" lon="6.17514">
        <ele>2657.57700096</ele>
        <time>2014-03-30T11:41:20.910Z</time>
      </trkpt>
      <trkpt lat="45.17963" lon="6.17521">
        <ele>2659.70800128</ele>
        <time>2014-03-30T11:41:48.680Z</time>
      </trkpt>
      <trkpt lat="45.17974" lon="6.17524">
        <ele>2661.94800128</ele>
        <time>2014-03-30T11:42:04.620Z</time>
      </trkpt>
      <trkpt lat="45.17984" lon="6.17526">
        <ele>2665.17200128</ele>
        <time>2014-03-30T11:42:21.000Z</time>
      </trkpt>
      <trkpt lat="45.17997" lon="6.17526">
        <ele>2665.216</ele>
        <time>2014-03-30T11:42:32.980Z</time>
      </trkpt>
      <trkpt lat="45.18007" lon="6.17521">
        <ele>2664.013834607</ele>
        <time>2014-03-30T11:42:45.120Z</time>
      </trkpt>
      <trkpt lat="45.18" lon="6.17532">
        <ele>2665</ele>
        <time>2014-03-30T11:46:36.700Z</time>
      </trkpt>
      <trkpt lat="45.18012" lon="6.17531">
        <ele>2664</ele>
        <time>2014-03-30T11:47:08.800Z</time>
      </trkpt>
      <trkpt lat="45.18006" lon="6.17526">
        <ele>2666</ele>
        <time>2014-03-30T11:48:20.320Z</time>
      </trkpt>
      <trkpt lat="45.18015" lon="6.17531">
        <ele>2665</ele>
        <time>2014-03-30T11:58:00.470Z</time>
      </trkpt>
      <trkpt lat="45.18034" lon="6.17536">
        <ele>2665</ele>
        <time>2014-03-30T11:58:18.810Z</time>
      </trkpt>
      <trkpt lat="45.18079" lon="6.17538">
        <ele>2665</ele>
        <time>2014-03-30T11:58:26.820Z</time>
      </trkpt>
      <trkpt lat="45.18102" lon="6.17563">
        <ele>2650.8108211996</ele>
        <time>2014-03-30T11:58:34.820Z</time>
      </trkpt>
      <trkpt lat="45.18129" lon="6.1759">
        <ele>2635.62199296</ele>
        <time>2014-03-30T11:58:43.120Z</time>
      </trkpt>
      <trkpt lat="45.18155" lon="6.17603">
        <ele>2628.5414561041</ele>
        <time>2014-03-30T11:58:50.670Z</time>
      </trkpt>
      <trkpt lat="45.18165" lon="6.17606">
        <ele>2624</ele>
        <time>2014-03-30T12:00:28.800Z</time>
      </trkpt>
      <trkpt lat="45.18172" lon="6.17616">
        <ele>2625</ele>
        <time>2014-03-30T12:00:43.800Z</time>
      </trkpt>
      <trkpt lat="45.1819" lon="6.17657">
        <ele>2623.2857018639</ele>
        <time>2014-03-30T12:00:49.920Z</time>
      </trkpt>
      <trkpt lat="45.18209" lon="6.17685">
        <ele>2612.2967014137</ele>
        <time>2014-03-30T12:00:54.920Z</time>
      </trkpt>
      <trkpt lat="45.18235" lon="6.17717">
        <ele>2601</ele>
        <time>2014-03-30T12:01:22.730Z</time>
      </trkpt>
      <trkpt lat="45.18223" lon="6.17714">
        <ele>2601</ele>
        <time>2014-03-30T12:01:43.770Z</time>
      </trkpt>
      <trkpt lat="45.18232" lon="6.17719">
        <ele>2601</ele>
        <time>2014-03-30T12:03:22.700Z</time>
      </trkpt>
      <trkpt lat="45.18223" lon="6.17714">
        <ele>2600.7142853489</ele>
        <time>2014-03-30T12:03:52.000Z</time>
      </trkpt>
      <trkpt lat="45.18226" lon="6.17713">
        <ele>2600.9989746862</ele>
        <time>2014-03-30T12:04:08.890Z</time>
      </trkpt>
      <trkpt lat="45.18224" lon="6.17712">
        <ele>2601</ele>
        <time>2014-03-30T12:34:04.120Z</time>
      </trkpt>
      <trkpt lat="45.18235" lon="6.1771">
        <ele>2596.88099584</ele>
        <time>2014-03-30T12:35:24.770Z</time>
      </trkpt>
      <trkpt lat="45.18255" lon="6.17751">
        <ele>2586.48099584</ele>
        <time>2014-03-30T12:35:32.770Z</time>
      </trkpt>
      <trkpt lat="45.18287" lon="6.17774">
        <ele>2565.77198336</ele>
        <time>2014-03-30T12:35:40.920Z</time>
      </trkpt>
      <trkpt lat="45.1833" lon="6.17741">
        <ele>2552.17798912</ele>
        <time>2014-03-30T12:38:24.800Z</time>
      </trkpt>
      <trkpt lat="45.18381" lon="6.17709">
        <ele>2538.57798912</ele>
        <time>2014-03-30T12:38:32.800Z</time>
      </trkpt>
      <trkpt lat="45.18431" lon="6.17774">
        <ele>2526.3299904</ele>
        <time>2014-03-30T12:38:40.920Z</time>
      </trkpt>
      <trkpt lat="45.18473" lon="6.17829">
        <ele>2516.2776145408</ele>
        <time>2014-03-30T12:38:48.770Z</time>
      </trkpt>
      <trkpt lat="45.18489" lon="6.17879">
        <ele>2507.7979926493</ele>
        <time>2014-03-30T12:38:56.730Z</time>
      </trkpt>
      <trkpt lat="45.18492" lon="6.17894">
        <ele>2501.83699968</ele>
        <time>2014-03-30T12:39:04.770Z</time>
      </trkpt>
      <trkpt lat="45.185" lon="6.17903">
        <ele>2501.03699968</ele>
        <time>2014-03-30T12:39:12.770Z</time>
      </trkpt>
      <trkpt lat="45.18505" lon="6.17932">
        <ele>2490.8961052745</ele>
        <time>2014-03-30T12:39:20.920Z</time>
      </trkpt>
      <trkpt lat="45.18535" lon="6.17947">
        <ele>2475.870865942</ele>
        <time>2014-03-30T12:39:28.920Z</time>
      </trkpt>
      <trkpt lat="45.18543" lon="6.17992">
        <ele>2465.86599808</ele>
        <time>2014-03-30T12:39:36.920Z</time>
      </trkpt>
      <trkpt lat="45.18548" lon="6.18007">
        <ele>2464</ele>
        <time>2014-03-30T12:39:52.780Z</time>
      </trkpt>
      <trkpt lat="45.18555" lon="6.1802">
        <ele>2456.1978026475</ele>
        <time>2014-03-30T12:40:16.770Z</time>
      </trkpt>
      <trkpt lat="45.18579" lon="6.1804">
        <ele>2442.5946047756</ele>
        <time>2014-03-30T12:40:24.770Z</time>
      </trkpt>
      <trkpt lat="45.18611" lon="6.1806">
        <ele>2425.7777717985</ele>
        <time>2014-03-30T12:40:32.770Z</time>
      </trkpt>
      <trkpt lat="45.18611" lon="6.18043">
        <ele>2423</ele>
        <time>2014-03-30T12:40:44.800Z</time>
      </trkpt>
      <trkpt lat="45.18604" lon="6.18029">
        <ele>2423</ele>
        <time>2014-03-30T12:40:56.730Z</time>
      </trkpt>
      <trkpt lat="45.18593" lon="6.18026">
        <ele>2423</ele>
        <time>2014-03-30T12:41:08.770Z</time>
      </trkpt>
      <trkpt lat="45.18603" lon="6.18036">
        <ele>2423</ele>
        <time>2014-03-30T12:41:36.800Z</time>
      </trkpt>
      <trkpt lat="45.18614" lon="6.18029">
        <ele>2422.95500032</ele>
        <time>2014-03-30T12:42:12.690Z</time>
      </trkpt>
      <trkpt lat="45.18693" lon="6.18029">
        <ele>2401.4755278556</ele>
        <time>2014-03-30T12:42:21.120Z</time>
      </trkpt>
      <trkpt lat="45.18768" lon="6.18089">
        <ele>2391.9008992041</ele>
        <time>2014-03-30T12:42:29.000Z</time>
      </trkpt>
      <trkpt lat="45.18797" lon="6.18124">
        <ele>2389</ele>
        <time>2014-03-30T12:42:35.000Z</time>
      </trkpt>
      <trkpt lat="45.1881" lon="6.18155">
        <ele>2389</ele>
        <time>2014-03-30T12:42:40.800Z</time>
      </trkpt>
      <trkpt lat="45.18814" lon="6.18173">
        <ele>2388.6373626655</ele>
        <time>2014-03-30T12:42:46.770Z</time>
      </trkpt>
      <trkpt lat="45.18815" lon="6.18187">
        <ele>2388.1161149464</ele>
        <time>2014-03-30T12:42:53.730Z</time>
      </trkpt>
      <trkpt lat="45.18814" lon="6.18202">
        <ele>2389.5175176945</ele>
        <time>2014-03-30T12:43:00.730Z</time>
      </trkpt>
      <trkpt lat="45.18818" lon="6.18215">
        <ele>2390</ele>
        <time>2014-03-30T12:43:09.920Z</time>
      </trkpt>
      <trkpt lat="45.18819" lon="6.1823">
        <ele>2389.3266733331</ele>
        <time>2014-03-30T12:43:19.880Z</time>
      </trkpt>
      <trkpt lat="45.18821" lon="6.18245">
        <ele>2390</ele>
        <time>2014-03-30T12:43:35.730Z</time>
      </trkpt>
      <trkpt lat="45.1882" lon="6.18259">
        <ele>2390</ele>
        <time>2014-03-30T12:43:49.800Z</time>
      </trkpt>
      <trkpt lat="45.18826" lon="6.18271">
        <ele>2390</ele>
        <time>2014-03-30T12:43:59.770Z</time>
      </trkpt>
      <trkpt lat="45.18836" lon="6.18279">
        <ele>2390</ele>
        <time>2014-03-30T12:44:06.920Z</time>
      </trkpt>
      <trkpt lat="45.18843" lon="6.18292">
        <ele>2390</ele>
        <time>2014-03-30T12:44:12.920Z</time>
      </trkpt>
      <trkpt lat="45.18852" lon="6.18317">
        <ele>2390</ele>
        <time>2014-03-30T12:44:34.800Z</time>
      </trkpt>
      <trkpt lat="45.1886" lon="6.18326">
        <ele>2390</ele>
        <time>2014-03-30T12:44:40.800Z</time>
      </trkpt>
      <trkpt lat="45.18861" lon="6.1834">
        <ele>2390</ele>
        <time>2014-03-30T12:44:55.730Z</time>
      </trkpt>
      <trkpt lat="45.18867" lon="6.18351">
        <ele>2390.1818186468</ele>
        <time>2014-03-30T12:45:14.960Z</time>
      </trkpt>
      <trkpt lat="45.1887" lon="6.18367">
        <ele>2391.35900032</ele>
        <time>2014-03-30T12:45:36.730Z</time>
      </trkpt>
      <trkpt lat="45.18879" lon="6.18373">
        <ele>2392</ele>
        <time>2014-03-30T12:45:45.800Z</time>
      </trkpt>
      <trkpt lat="45.18889" lon="6.18377">
        <ele>2392.8628630514</ele>
        <time>2014-03-30T12:46:01.770Z</time>
      </trkpt>
      <trkpt lat="45.18899" lon="6.18378">
        <ele>2393.47800064</ele>
        <time>2014-03-30T12:46:07.920Z</time>
      </trkpt>
      <trkpt lat="45.18909" lon="6.18383">
        <ele>2394</ele>
        <time>2014-03-30T12:46:17.920Z</time>
      </trkpt>
      <trkpt lat="45.18918" lon="6.18391">
        <ele>2393.4684689187</ele>
        <time>2014-03-30T12:46:24.920Z</time>
      </trkpt>
      <trkpt lat="45.18949" lon="6.18424">
        <ele>2390.73599744</ele>
        <time>2014-03-30T12:46:33.800Z</time>
      </trkpt>
      <trkpt lat="45.18971" lon="6.18447">
        <ele>2387.53599744</ele>
        <time>2014-03-30T12:46:41.800Z</time>
      </trkpt>
      <trkpt lat="45.18975" lon="6.18463">
        <ele>2386</ele>
        <time>2014-03-30T12:47:25.800Z</time>
      </trkpt>
      <trkpt lat="45.18985" lon="6.18454">
        <ele>2385.256</ele>
        <time>2014-03-30T12:49:05.700Z</time>
      </trkpt>
      <trkpt lat="45.18973" lon="6.18455">
        <ele>2386</ele>
        <time>2014-03-30T12:49:21.920Z</time>
      </trkpt>
      <trkpt lat="45.18961" lon="6.18458">
        <ele>2386</ele>
        <time>2014-03-30T12:50:13.730Z</time>
      </trkpt>
      <trkpt lat="45.18972" lon="6.18456">
        <ele>2385.3373373412</ele>
        <time>2014-03-30T12:50:29.770Z</time>
      </trkpt>
      <trkpt lat="45.18982" lon="6.18464">
        <ele>2385</ele>
        <time>2014-03-30T12:51:01.800Z</time>
      </trkpt>
      <trkpt lat="45.18966" lon="6.18462">
        <ele>2385</ele>
        <time>2014-03-30T12:51:45.800Z</time>
      </trkpt>
      <trkpt lat="45.18977" lon="6.18462">
        <ele>2385</ele>
        <time>2014-03-30T12:52:49.970Z</time>
      </trkpt>
      <trkpt lat="45.18978" lon="6.18476">
        <ele>2385.4694696003</ele>
        <time>2014-03-30T12:53:25.800Z</time>
      </trkpt>
      <trkpt lat="45.18994" lon="6.18502">
        <ele>2383.6849984</ele>
        <time>2014-03-30T12:53:33.770Z</time>
      </trkpt>
      <trkpt lat="45.19014" lon="6.18536">
        <ele>2379.6849984</ele>
        <time>2014-03-30T12:53:41.770Z</time>
      </trkpt>
      <trkpt lat="45.19022" lon="6.18564">
        <ele>2376.2907093316</ele>
        <time>2014-03-30T12:53:49.920Z</time>
      </trkpt>
      <trkpt lat="45.1904" lon="6.18608">
        <ele>2360.6756715202</ele>
        <time>2014-03-30T12:53:57.920Z</time>
      </trkpt>
      <trkpt lat="45.19092" lon="6.18599">
        <ele>2341.0549952</ele>
        <time>2014-03-30T12:54:05.770Z</time>
      </trkpt>
      <trkpt lat="45.19144" lon="6.18601">
        <ele>2329.351645457</ele>
        <time>2014-03-30T12:54:13.730Z</time>
      </trkpt>
      <trkpt lat="45.19177" lon="6.18655">
        <ele>2320.5604450969</ele>
        <time>2014-03-30T12:54:21.730Z</time>
      </trkpt>
      <trkpt lat="45.1918" lon="6.18658">
        <ele>2313.73399936</ele>
        <time>2014-03-30T12:55:05.800Z</time>
      </trkpt>
      <trkpt lat="45.19191" lon="6.18651">
        <ele>2311.1498506455</ele>
        <time>2014-03-30T12:55:17.770Z</time>
      </trkpt>
      <trkpt lat="45.19214" lon="6.18643">
        <ele>2301.5725744041</ele>
        <time>2014-03-30T12:55:25.800Z</time>
      </trkpt>
      <trkpt lat="45.19296" lon="6.18735">
        <ele>2281</ele>
        <time>2014-03-30T12:55:36.970Z</time>
      </trkpt>
      <trkpt lat="45.193" lon="6.1877">
        <ele>2280.4626832595</ele>
        <time>2014-03-30T12:55:44.940Z</time>
      </trkpt>
      <trkpt lat="45.19293" lon="6.18802">
        <ele>2278.6776122483</ele>
        <time>2014-03-30T12:55:50.920Z</time>
      </trkpt>
      <trkpt lat="45.19286" lon="6.18834">
        <ele>2278</ele>
        <time>2014-03-30T12:56:00.670Z</time>
      </trkpt>
      <trkpt lat="45.19284" lon="6.18863">
        <ele>2276.49399808</ele>
        <time>2014-03-30T12:56:10.670Z</time>
      </trkpt>
      <trkpt lat="45.19282" lon="6.18878">
        <ele>2276.9670320396</ele>
        <time>2014-03-30T12:56:22.820Z</time>
      </trkpt>
      <trkpt lat="45.19288" lon="6.1889">
        <ele>2277.8678690222</ele>
        <time>2014-03-30T12:56:31.820Z</time>
      </trkpt>
      <trkpt lat="45.19285" lon="6.18904">
        <ele>2278</ele>
        <time>2014-03-30T12:56:40.820Z</time>
      </trkpt>
      <trkpt lat="45.1929" lon="6.18916">
        <ele>2279.7342666285</ele>
        <time>2014-03-30T12:56:51.820Z</time>
      </trkpt>
      <trkpt lat="45.193" lon="6.18922">
        <ele>2280</ele>
        <time>2014-03-30T12:57:01.820Z</time>
      </trkpt>
      <trkpt lat="45.19304" lon="6.18935">
        <ele>2280</ele>
        <time>2014-03-30T12:57:12.120Z</time>
      </trkpt>
      <trkpt lat="45.19316" lon="6.18938">
        <ele>2278</ele>
        <time>2014-03-30T12:57:51.000Z</time>
      </trkpt>
      <trkpt lat="45.19323" lon="6.18951">
        <ele>2277.6716739187</ele>
        <time>2014-03-30T12:58:23.970Z</time>
      </trkpt>
      <trkpt lat="45.19342" lon="6.18983">
        <ele>2275.2692692077</ele>
        <time>2014-03-30T12:58:29.970Z</time>
      </trkpt>
      <trkpt lat="45.1937" lon="6.19047">
        <ele>2268.0696446698</ele>
        <time>2014-03-30T12:58:36.120Z</time>
      </trkpt>
      <trkpt lat="45.19407" lon="6.19114">
        <ele>2256.129357568</ele>
        <time>2014-03-30T12:58:42.120Z</time>
      </trkpt>
      <trkpt lat="45.19445" lon="6.19146">
        <ele>2245.3614573494</ele>
        <time>2014-03-30T12:58:47.970Z</time>
      </trkpt>
      <trkpt lat="45.19494" lon="6.19193">
        <ele>2234.5735661167</ele>
        <time>2014-03-30T12:58:53.900Z</time>
      </trkpt>
      <trkpt lat="45.19534" lon="6.19266">
        <ele>2223.1621437394</ele>
        <time>2014-03-30T12:58:59.900Z</time>
      </trkpt>
      <trkpt lat="45.19544" lon="6.19297">
        <ele>2217.28600064</ele>
        <time>2014-03-30T12:59:06.000Z</time>
      </trkpt>
      <trkpt lat="45.19551" lon="6.19308">
        <ele>2211.99898368</ele>
        <time>2014-03-30T12:59:36.670Z</time>
      </trkpt>
      <trkpt lat="45.19582" lon="6.19358">
        <ele>2202.98899456</ele>
        <time>2014-03-30T12:59:41.970Z</time>
      </trkpt>
      <trkpt lat="45.19627" lon="6.19426">
        <ele>2189.6553337971</ele>
        <time>2014-03-30T12:59:49.820Z</time>
      </trkpt>
      <trkpt lat="45.19645" lon="6.19427">
        <ele>2180.088</ele>
        <time>2014-03-30T13:00:37.700Z</time>
      </trkpt>
      <trkpt lat="45.1964" lon="6.19459">
        <ele>2178.2537440923</ele>
        <time>2014-03-30T13:00:45.630Z</time>
      </trkpt>
      <trkpt lat="45.19647" lon="6.19472">
        <ele>2175.0150217562</ele>
        <time>2014-03-30T13:00:53.970Z</time>
      </trkpt>
      <trkpt lat="45.19662" lon="6.19449">
        <ele>2165.7657559311</ele>
        <time>2014-03-30T13:01:01.670Z</time>
      </trkpt>
      <trkpt lat="45.19663" lon="6.19435">
        <ele>2162.66399744</ele>
        <time>2014-03-30T13:01:09.820Z</time>
      </trkpt>
      <trkpt lat="45.19677" lon="6.19421">
        <ele>2155.9531882072</ele>
        <time>2014-03-30T13:01:30.000Z</time>
      </trkpt>
      <trkpt lat="45.19695" lon="6.19427">
        <ele>2147.3687325812</ele>
        <time>2014-03-30T13:01:37.670Z</time>
      </trkpt>
      <trkpt lat="45.19735" lon="6.19399">
        <ele>2135.2444836909</ele>
        <time>2014-03-30T13:01:45.670Z</time>
      </trkpt>
      <trkpt lat="45.19774" lon="6.19412">
        <ele>2126.4894909208</ele>
        <time>2014-03-30T13:01:54.000Z</time>
      </trkpt>
      <trkpt lat="45.19799" lon="6.19421">
        <ele>2121.864865696</ele>
        <time>2014-03-30T13:02:01.700Z</time>
      </trkpt>
      <trkpt lat="45.19809" lon="6.19422">
        <ele>2121.66800128</ele>
        <time>2014-03-30T13:02:09.820Z</time>
      </trkpt>
      <trkpt lat="45.19826" lon="6.19426">
        <ele>2120.6036032227</ele>
        <time>2014-03-30T13:02:27.800Z</time>
      </trkpt>
      <trkpt lat="45.19845" lon="6.1944">
        <ele>2118.82899712</ele>
        <time>2014-03-30T13:02:33.710Z</time>
      </trkpt>
      <trkpt lat="45.19855" lon="6.19444">
        <ele>2117.32899712</ele>
        <time>2014-03-30T13:02:38.710Z</time>
      </trkpt>
      <trkpt lat="45.19866" lon="6.19448">
        <ele>2116</ele>
        <time>2014-03-30T13:02:46.930Z</time>
      </trkpt>
      <trkpt lat="45.19886" lon="6.19464">
        <ele>2115.2392385082</ele>
        <time>2014-03-30T13:02:54.670Z</time>
      </trkpt>
      <trkpt lat="45.19897" lon="6.19492">
        <ele>2111.5855845467</ele>
        <time>2014-03-30T13:03:01.970Z</time>
      </trkpt>
      <trkpt lat="45.19907" lon="6.19503">
        <ele>2110.432</ele>
        <time>2014-03-30T13:03:08.820Z</time>
      </trkpt>
      <trkpt lat="45.19924" lon="6.19544">
        <ele>2107.3226671031</ele>
        <time>2014-03-30T13:03:15.820Z</time>
      </trkpt>
      <trkpt lat="45.19935" lon="6.19591">
        <ele>2099.2392385082</ele>
        <time>2014-03-30T13:03:24.670Z</time>
      </trkpt>
      <trkpt lat="45.19937" lon="6.19629">
        <ele>2094.384</ele>
        <time>2014-03-30T13:03:33.700Z</time>
      </trkpt>
      <trkpt lat="45.19941" lon="6.19691">
        <ele>2086.35399296</ele>
        <time>2014-03-30T13:03:41.000Z</time>
      </trkpt>
      <trkpt lat="45.19964" lon="6.19728">
        <ele>2085.5044959797</ele>
        <time>2014-03-30T13:03:50.670Z</time>
      </trkpt>
      <trkpt lat="45.19959" lon="6.19741">
        <ele>2084.29800192</ele>
        <time>2014-03-30T13:04:09.630Z</time>
      </trkpt>
      <trkpt lat="45.19963" lon="6.19754">
        <ele>2086.5648240223</ele>
        <time>2014-03-30T13:04:26.000Z</time>
      </trkpt>
      <trkpt lat="45.19964" lon="6.19768">
        <ele>2088</ele>
        <time>2014-03-30T13:04:41.820Z</time>
      </trkpt>
      <trkpt lat="45.19967" lon="6.19781">
        <ele>2089</ele>
        <time>2014-03-30T13:05:01.970Z</time>
      </trkpt>
      <trkpt lat="45.19967" lon="6.19796">
        <ele>2090</ele>
        <time>2014-03-30T13:05:13.970Z</time>
      </trkpt>
      <trkpt lat="45.19972" lon="6.19808">
        <ele>2092.48600064</ele>
        <time>2014-03-30T13:05:38.000Z</time>
      </trkpt>
      <trkpt lat="45.1998" lon="6.1982">
        <ele>2093.4525479776</ele>
        <time>2014-03-30T13:05:47.670Z</time>
      </trkpt>
      <trkpt lat="45.19986" lon="6.1983">
        <ele>2093.18300032</ele>
        <time>2014-03-30T13:06:04.970Z</time>
      </trkpt>
      <trkpt lat="45.19994" lon="6.19855">
        <ele>2095</ele>
        <time>2014-03-30T13:06:23.700Z</time>
      </trkpt>
      <trkpt lat="45.19999" lon="6.19872">
        <ele>2096</ele>
        <time>2014-03-30T13:06:48.700Z</time>
      </trkpt>
      <trkpt lat="45.20004" lon="6.19885">
        <ele>2097.5494076845</ele>
        <time>2014-03-30T13:07:08.700Z</time>
      </trkpt>
      <trkpt lat="45.20016" lon="6.19907">
        <ele>2098</ele>
        <time>2014-03-30T13:07:24.670Z</time>
      </trkpt>
      <trkpt lat="45.20023" lon="6.19936">
        <ele>2096.57599488</ele>
        <time>2014-03-30T13:07:36.700Z</time>
      </trkpt>
      <trkpt lat="45.2004" lon="6.19957">
        <ele>2094.3017768509</ele>
        <time>2014-03-30T13:07:44.670Z</time>
      </trkpt>
      <trkpt lat="45.2005" lon="6.19976">
        <ele>2095.9388554232</ele>
        <time>2014-03-30T13:07:52.970Z</time>
      </trkpt>
      <trkpt lat="45.2006" lon="6.19986">
        <ele>2093.7058828111</ele>
        <time>2014-03-30T13:08:00.820Z</time>
      </trkpt>
      <trkpt lat="45.2007" lon="6.19994">
        <ele>2092.432</ele>
        <time>2014-03-30T13:08:08.820Z</time>
      </trkpt>
      <trkpt lat="45.20069" lon="6.19979">
        <ele>2092</ele>
        <time>2014-03-30T13:08:42.800Z</time>
      </trkpt>
      <trkpt lat="45.20075" lon="6.19989">
        <ele>2092</ele>
        <time>2014-03-30T13:09:33.960Z</time>
      </trkpt>
      <trkpt lat="45.20066" lon="6.19981">
        <ele>2091.51200256</ele>
        <time>2014-03-30T13:10:50.700Z</time>
      </trkpt>
      <trkpt lat="45.20075" lon="6.19987">
        <ele>2090</ele>
        <time>2014-03-30T13:11:29.700Z</time>
      </trkpt>
      <trkpt lat="45.20073" lon="6.20001">
        <ele>2092</ele>
        <time>2014-03-30T13:12:23.700Z</time>
      </trkpt>
      <trkpt lat="45.20083" lon="6.19996">
        <ele>2090</ele>
        <time>2014-03-30T13:14:04.000Z</time>
      </trkpt>
      <trkpt lat="45.2007" lon="6.19991">
        <ele>2092</ele>
        <time>2014-03-30T13:14:52.000Z</time>
      </trkpt>
      <trkpt lat="45.20079" lon="6.20004">
        <ele>2090.0700707781</ele>
        <time>2014-03-30T13:15:27.970Z</time>
      </trkpt>
      <trkpt lat="45.20112" lon="6.20036">
        <ele>2086.7412899586</ele>
        <time>2014-03-30T13:15:35.670Z</time>
      </trkpt>
      <trkpt lat="45.20147" lon="6.20084">
        <ele>2081.5662920482</ele>
        <time>2014-03-30T13:15:43.700Z</time>
      </trkpt>
      <trkpt lat="45.20203" lon="6.20174">
        <ele>2058.2329407229</ele>
        <time>2014-03-30T13:15:52.000Z</time>
      </trkpt>
      <trkpt lat="45.20248" lon="6.20229">
        <ele>2052.9969941112</ele>
        <time>2014-03-30T13:15:59.820Z</time>
      </trkpt>
      <trkpt lat="45.20298" lon="6.20238">
        <ele>2048.808</ele>
        <time>2014-03-30T13:16:07.700Z</time>
      </trkpt>
      <trkpt lat="45.20346" lon="6.20242">
        <ele>2045.851151871</ele>
        <time>2014-03-30T13:16:15.980Z</time>
      </trkpt>
      <trkpt lat="45.20385" lon="6.20231">
        <ele>2047.064079501</ele>
        <time>2014-03-30T13:16:23.700Z</time>
      </trkpt>
      <trkpt lat="45.20451" lon="6.20229">
        <ele>2033.4504528052</ele>
        <time>2014-03-30T13:16:31.700Z</time>
      </trkpt>
      <trkpt lat="45.2053" lon="6.20241">
        <ele>2024.0199936</ele>
        <time>2014-03-30T13:16:40.120Z</time>
      </trkpt>
      <trkpt lat="45.20607" lon="6.20265">
        <ele>2016.7922003192</ele>
        <time>2014-03-30T13:16:47.820Z</time>
      </trkpt>
      <trkpt lat="45.20663" lon="6.20304">
        <ele>2011.243242516</ele>
        <time>2014-03-30T13:16:55.670Z</time>
      </trkpt>
      <trkpt lat="45.20711" lon="6.20335">
        <ele>2008.13099648</ele>
        <time>2014-03-30T13:17:03.930Z</time>
      </trkpt>
      <trkpt lat="45.20762" lon="6.20375">
        <ele>1999.66098944</ele>
        <time>2014-03-30T13:17:11.630Z</time>
      </trkpt>
      <trkpt lat="45.20823" lon="6.20419">
        <ele>1993.3286668576</ele>
        <time>2014-03-30T13:17:19.820Z</time>
      </trkpt>
      <trkpt lat="45.20895" lon="6.20457">
        <ele>1986.6576592506</ele>
        <time>2014-03-30T13:17:27.970Z</time>
      </trkpt>
      <trkpt lat="45.20954" lon="6.20496">
        <ele>1981.10599808</ele>
        <time>2014-03-30T13:17:36.120Z</time>
      </trkpt>
      <trkpt lat="45.21002" lon="6.20551">
        <ele>1974.9620117847</ele>
        <time>2014-03-30T13:17:44.000Z</time>
      </trkpt>
      <trkpt lat="45.21096" lon="6.20645">
        <ele>1938.3386702846</ele>
        <time>2014-03-30T13:17:51.800Z</time>
      </trkpt>
      <trkpt lat="45.21178" lon="6.2072">
        <ele>1921.8348298713</ele>
        <time>2014-03-30T13:17:59.920Z</time>
      </trkpt>
      <trkpt lat="45.21241" lon="6.20785">
        <ele>1904.49899136</ele>
        <time>2014-03-30T13:18:07.770Z</time>
      </trkpt>
      <trkpt lat="45.21297" lon="6.20831">
        <ele>1882.6433547476</ele>
        <time>2014-03-30T13:18:15.770Z</time>
      </trkpt>
      <trkpt lat="45.21329" lon="6.20898">
        <ele>1860.0577784861</ele>
        <time>2014-03-30T13:18:23.800Z</time>
      </trkpt>
      <trkpt lat="45.21394" lon="6.20966">
        <ele>1836.1533960159</ele>
        <time>2014-03-30T13:18:31.800Z</time>
      </trkpt>
      <trkpt lat="45.21447" lon="6.21038">
        <ele>1820.2231215821</ele>
        <time>2014-03-30T13:18:39.700Z</time>
      </trkpt>
      <trkpt lat="45.21493" lon="6.21095">
        <ele>1803.5154429462</ele>
        <time>2014-03-30T13:18:47.920Z</time>
      </trkpt>
      <trkpt lat="45.21552" lon="6.21125">
        <ele>1784.0862466074</ele>
        <time>2014-03-30T13:18:55.800Z</time>
      </trkpt>
      <trkpt lat="45.21597" lon="6.21179">
        <ele>1759.82197888</ele>
        <time>2014-03-30T13:19:03.800Z</time>
      </trkpt>
      <trkpt lat="45.2165" lon="6.21285">
        <ele>1733.42197888</ele>
        <time>2014-03-30T13:19:11.800Z</time>
      </trkpt>
      <trkpt lat="45.21736" lon="6.21419">
        <ele>1710.7122879882</ele>
        <time>2014-03-30T13:19:19.920Z</time>
      </trkpt>
      <trkpt lat="45.21834" lon="6.21476">
        <ele>1691.4954924481</ele>
        <time>2014-03-30T13:19:27.920Z</time>
      </trkpt>
      <trkpt lat="45.21913" lon="6.21537">
        <ele>1675.8299904</ele>
        <time>2014-03-30T13:19:35.920Z</time>
      </trkpt>
      <trkpt lat="45.21932" lon="6.21621">
        <ele>1662.5604182438</ele>
        <time>2014-03-30T13:19:43.800Z</time>
      </trkpt>
      <trkpt lat="45.21914" lon="6.21808">
        <ele>1632.9900170325</ele>
        <time>2014-03-30T13:19:51.800Z</time>
      </trkpt>
      <trkpt lat="45.21918" lon="6.21935">
        <ele>1620.710710753</ele>
        <time>2014-03-30T13:19:59.770Z</time>
      </trkpt>
      <trkpt lat="45.21946" lon="6.21923">
        <ele>1618.38900096</ele>
        <time>2014-03-30T13:20:07.770Z</time>
      </trkpt>
      <trkpt lat="45.21954" lon="6.21911">
        <ele>1620</ele>
        <time>2014-03-30T13:20:15.770Z</time>
      </trkpt>
      <trkpt lat="45.21948" lon="6.21896">
        <ele>1620</ele>
        <time>2014-03-30T13:20:31.780Z</time>
      </trkpt>
      <trkpt lat="45.21949" lon="6.21881">
        <ele>1619.9370626777</ele>
        <time>2014-03-30T13:20:43.770Z</time>
      </trkpt>
      <trkpt lat="45.21959" lon="6.21876">
        <ele>1619.06300032</ele>
        <time>2014-03-30T13:21:03.770Z</time>
      </trkpt>
      <trkpt lat="45.21972" lon="6.21868">
        <ele>1620.28300032</ele>
        <time>2014-03-30T13:21:35.970Z</time>
      </trkpt>
      <trkpt lat="45.21972" lon="6.21883">
        <ele>1621.3703700856</ele>
        <time>2014-03-30T13:21:55.000Z</time>
      </trkpt>
      <trkpt lat="45.21976" lon="6.21872">
        <ele>1621</ele>
        <time>2014-03-30T13:22:18.860Z</time>
      </trkpt>
    </trkseg>
  </trk>
</gpx>